M I D A S
Marine Information and Data Acquisition System
Tripno 1810 of the Zeeleeuw from 2009-11-19 08:28:57 to 2009-11-19 13:29:36
Back to CruiseResearch ActivitiesStationsMapUnderway DataData graphs

EquipmentUnitsComment
TimeDGPSUTC
LatitudeDGPSDM.mWGS84
LongitudeDGPSDM.mWGS84
TemperatureSBE03/SBE38deg celciusITS90
ConductivitySBE21S/mITS90
SalinitySBE21 Practical Salinity Units
ChlorophylAChelsea fluorimeterg/lCalibrated in Aceton
Missing or incorrect values are displayed as -999
Sea surface data collected by the RV Zeeleeuw from 2009-11-19 08:31:40 to 2009-11-19 13:47:33
                                                                                    Next 1000 lines
Time Latitude Longitude Temperature Conductivity Salinity ChlorophylA
2009-11-19 08:31:50 51°13.662 2°55.955 17.9713 0.038297 0.215595 -0.547855
2009-11-19 08:31:55 51°13.663 2°55.952 17.9757 0.039018 0.219728 -0.547855
2009-11-19 08:32:00 51°13.664 2°55.948 17.9772 0.038503 0.216783 -0.547855
2009-11-19 08:32:05 51°13.666 2°55.943 17.974 0.038503 0.216783 -0.547855
2009-11-19 08:32:11 51°13.668 2°55.937 17.9791 0.039018 0.21974 -0.547855
2009-11-19 08:32:17 51°13.67 2°55.929 17.9751 0.038812 0.218558 -0.547855
2009-11-19 08:32:23 51°13.672 2°55.921 17.9759 0.038812 0.218566 -0.547855
2009-11-19 08:32:28 51°13.674 2°55.914 17.9773 0.038812 0.218566 -0.547855
2009-11-19 08:32:33 51°13.676 2°55.907 17.977 0.038915 0.219165 -0.547855
2009-11-19 08:32:39 51°13.678 2°55.897 17.9783 0.038915 0.219165 -0.547855
2009-11-19 08:32:44 51°13.679 2°55.889 17.9781 0.039018 0.21976 -0.547855
2009-11-19 08:32:49 51°13.681 2°55.881 17.9773 0.038915 0.219173 -0.547855
2009-11-19 08:32:53 51°13.682 2°55.875 17.9774 0.038915 0.219181 -0.547855
2009-11-19 08:32:58 51°13.684 2°55.867 17.9795 0.039121 0.220367 -0.547855
2009-11-19 08:33:04 51°13.685 2°55.857 17.9775 0.038915 0.219185 -0.58268
2009-11-19 08:33:09 51°13.686 2°55.85 17.9768 0.038915 0.219185 -0.58268
2009-11-19 08:33:14 51°13.687 2°55.842 17.9768 0.038915 0.219189 -0.547855
2009-11-19 08:33:18 51°13.688 2°55.836 17.9763 0.038915 0.219193 -0.547855
2009-11-19 08:33:24 51°13.689 2°55.827 17.9785 0.038915 0.219193 -0.547855
2009-11-19 08:33:29 51°13.69 2°55.82 17.977 0.039018 0.219788 -0.547855
2009-11-19 08:33:34 51°13.691 2°55.812 17.9772 0.038915 0.219197 -0.547855
2009-11-19 08:33:39 51°13.692 2°55.806 17.9763 0.038915 0.219197 -0.547855
2009-11-19 08:33:44 51°13.693 2°55.799 17.9767 0.039018 0.219788 -0.547855
2009-11-19 08:33:49 51°13.694 2°55.792 17.9762 0.039018 0.219792 -0.58268
2009-11-19 08:33:54 51°13.694 2°55.786 17.9774 0.039018 0.219792 -0.547855
2009-11-19 08:33:59 51°13.695 2°55.78 17.9775 0.038915 0.219205 -0.547855
2009-11-19 08:34:04 51°13.695 2°55.774 17.9788 0.039121 0.220391 -0.547855
2009-11-19 08:34:08 51°13.696 2°55.77 17.9773 0.039121 0.220391 -0.547855
2009-11-19 08:34:14 51°13.696 2°55.764 17.98 0.039224 0.220986 -0.547855
2009-11-19 08:34:19 51°13.696 2°55.762 17.9795 0.039327 0.221585 -0.547855
2009-11-19 08:34:24 51°13.697 2°55.761 17.9792 0.039224 0.221002 -0.58268
2009-11-19 08:34:28 51°13.697 2°55.76 17.9779 0.038915 0.219225 -0.547855
2009-11-19 08:34:33 51°13.698 2°55.759 17.978 0.038915 0.219229 -0.547855
2009-11-19 08:34:38 51°13.698 2°55.759 17.9776 0.038915 0.219229 -0.547855
2009-11-19 08:34:43 51°13.699 2°55.759 17.9783 0.039018 0.219824 -0.547855
2009-11-19 08:34:48 51°13.7 2°55.758 17.9766 0.039018 0.219828 -0.547855
2009-11-19 08:34:53 51°13.7 2°55.758 17.9772 0.038812 0.218642 -0.547855
2009-11-19 08:34:57 51°13.701 2°55.758 17.9722 0.038915 0.219233 -0.547855
2009-11-19 08:35:02 51°13.701 2°55.758 17.979 0.038709 0.218051 -0.547855
2009-11-19 08:35:07 51°13.701 2°55.756 17.9717 0.038709 0.218051 -0.547855
2009-11-19 08:35:12 51°13.7 2°55.754 17.9799 0.038606 0.21746 -0.58268
2009-11-19 08:35:17 51°13.699 2°55.752 17.9803 0.038606 0.21746 -0.547855
2009-11-19 08:35:22 51°13.697 2°55.75 17.9825 0.038812 0.218654 -0.547855
2009-11-19 08:35:26 51°13.696 2°55.748 17.9813 0.038915 0.219249 -0.547855
2009-11-19 08:35:31 51°13.695 2°55.746 17.9828 0.039018 0.219844 -0.547855
2009-11-19 08:35:36 51°13.693 2°55.744 17.982 0.039018 0.219844 -0.547855
2009-11-19 08:35:42 51°13.693 2°55.743 17.9844 0.039532 0.222812 -0.547855
2009-11-19 08:35:48 51°13.693 2°55.742 17.9837 0.039224 0.221046 -0.58268
2009-11-19 08:35:53 51°13.694 2°55.742 17.9843 0.039327 0.221646 -0.547855
2009-11-19 08:35:59 51°13.696 2°55.742 17.9836 0.039121 0.220467 -0.58268
2009-11-19 08:36:04 51°13.698 2°55.741 17.9842 0.039121 0.220471 -0.547855
2009-11-19 08:36:09 51°13.7 2°55.74 17.9851 0.039121 0.220471 -0.547855
2009-11-19 08:36:13 51°13.702 2°55.738 17.9841 0.038709 0.218099 -0.58268
2009-11-19 08:36:18 51°13.706 2°55.736 17.9809 0.038709 0.218095 -0.58268
2009-11-19 08:36:23 51°13.71 2°55.733 17.9792 0.038606 0.2175 -0.58268
2009-11-19 08:36:28 51°13.714 2°55.729 17.9786 0.038709 0.218091 -0.547855
2009-11-19 08:36:33 51°13.719 2°55.725 17.9761 0.038606 0.217496 -0.547855
2009-11-19 08:36:38 51°13.724 2°55.72 17.9754 0.038606 0.217496 -0.547855
2009-11-19 08:36:43 51°13.73 2°55.715 17.9762 0.038812 0.218678 -0.547855
2009-11-19 08:36:47 51°13.735 2°55.711 17.9736 0.038503 0.216905 -0.547855
2009-11-19 08:36:52 51°13.742 2°55.705 17.9744 0.038709 0.218087 -0.547855
2009-11-19 08:36:57 51°13.749 2°55.699 17.9756 0.038812 0.218682 -0.547855
2009-11-19 08:37:02 51°13.756 2°55.692 17.9753 0.038503 0.216909 -0.547855
2009-11-19 08:37:07 51°13.763 2°55.686 17.9748 0.038503 0.216909 -0.547855
2009-11-19 08:37:12 51°13.772 2°55.679 17.9775 0.038812 0.218686 -0.58268
2009-11-19 08:37:16 51°13.778 2°55.674 17.9753 0.038606 0.217504 -0.58268
2009-11-19 08:37:21 51°13.786 2°55.667 17.979 0.038709 0.218099 -0.547855
2009-11-19 08:37:26 51°13.795 2°55.66 17.9773 0.038606 0.217508 -0.547855
2009-11-19 08:37:31 51°13.804 2°55.653 17.9781 0.038606 0.217512 -0.58268
2009-11-19 08:37:36 51°13.812 2°55.646 17.9783 0.038606 0.217512 -0.58268
2009-11-19 08:37:41 51°13.822 2°55.638 17.9799 0.038709 0.218103 -0.547855
2009-11-19 08:37:45 51°13.829 2°55.633 17.9805 0.038503 0.216929 -0.547855
2009-11-19 08:37:50 51°13.838 2°55.626 17.9767 0.038503 0.216925 -0.547855
2009-11-19 08:37:55 51°13.848 2°55.618 17.9784 0.038297 0.215748 -0.58268
2009-11-19 08:38:00 51°13.858 2°55.611 17.9768 0.038812 0.218702 -0.58268
2009-11-19 08:38:05 51°13.868 2°55.604 17.9796 0.038812 0.218702 -0.58268
2009-11-19 08:38:10 51°13.878 2°55.596 17.9785 0.0384 0.216342 -0.58268
2009-11-19 08:38:15 51°13.888 2°55.588 17.9772 0.038709 0.218119 -0.58268
2009-11-19 08:38:20 51°13.898 2°55.581 17.9798 0.038606 0.217532 -0.58268
2009-11-19 08:38:25 51°13.908 2°55.573 17.9768 0.038503 0.216941 -0.547855
2009-11-19 08:38:30 51°13.918 2°55.565 17.9776 0.038606 0.21754 -0.547855
2009-11-19 08:38:35 51°13.929 2°55.558 17.9776 0.038606 0.21754 -0.547855
2009-11-19 08:38:40 51°13.939 2°55.549 17.981 0.038709 0.218127 -0.58268
2009-11-19 08:38:45 51°13.95 2°55.542 17.9806 0.038606 0.217544 -0.547855
2009-11-19 08:38:50 51°13.96 2°55.534 17.9784 0.0384 0.216358 -0.547855
2009-11-19 08:38:55 51°13.971 2°55.526 17.9788 0.038709 0.218139 -0.547855
2009-11-19 08:39:00 51°13.981 2°55.519 17.9827 0.038503 0.216961 -0.547855
2009-11-19 08:39:05 51°13.992 2°55.512 17.9796 0.038503 0.216961 -0.547855
2009-11-19 08:39:10 51°14.003 2°55.504 17.9815 0.038606 0.217552 -0.58268
2009-11-19 08:39:15 51°14.014 2°55.496 17.9786 0.038195 0.215192 -0.58268
2009-11-19 08:39:20 51°14.024 2°55.488 17.9792 0.038812 0.218742 -0.58268
2009-11-19 08:39:25 51°14.035 2°55.48 17.9809 0.0384 0.216378 -0.58268
2009-11-19 08:39:30 51°14.046 2°55.472 17.9803 0.038606 0.217563 -0.547855
2009-11-19 08:39:35 51°14.056 2°55.464 17.9831 0.038606 0.217563 -0.547855
2009-11-19 08:39:40 51°14.067 2°55.457 17.9823 0.038503 0.216976 -0.58268
2009-11-19 08:39:45 51°14.078 2°55.448 17.982 0.038503 0.21698 -0.58268
2009-11-19 08:39:50 51°14.088 2°55.44 17.9804 0.038503 0.216984 -0.58268
2009-11-19 08:39:55 51°14.098 2°55.432 17.9797 0.038297 0.215799 -0.547855
2009-11-19 08:40:00 51°14.109 2°55.424 17.9825 0.038915 0.219357 -0.58268
2009-11-19 08:40:05 51°14.119 2°55.416 17.9864 0.038915 0.219357 -0.58268
2009-11-19 08:40:10 51°14.13 2°55.407 17.9831 0.038606 0.217587 -0.58268
2009-11-19 08:40:15 51°14.14 2°55.398 17.9827 0.0384 0.216409 -0.547855
2009-11-19 08:40:20 51°14.15 2°55.389 17.9871 0.038812 0.218781 -0.547855
2009-11-19 08:40:25 51°14.16 2°55.38 17.9857 0.038606 0.217603 -0.547855
2009-11-19 08:40:30 51°14.17 2°55.37 17.9837 0.038297 0.21583 -0.547855
2009-11-19 08:40:35 51°14.18 2°55.36 17.9818 0.038297 0.21583 -0.547855
2009-11-19 08:40:40 51°14.189 2°55.349 17.9825 0.038606 0.217603 -0.58268
2009-11-19 08:40:45 51°14.199 2°55.338 17.9847 0.038709 0.218202 -0.547855
2009-11-19 08:40:50 51°14.208 2°55.326 17.9843 0.038503 0.217024 -0.547855
2009-11-19 08:40:55 51°14.217 2°55.314 17.9794 0.038503 0.217024 -0.547855
2009-11-19 08:41:00 51°14.225 2°55.302 17.9843 0.038812 0.218805 -0.547855
2009-11-19 08:41:05 51°14.234 2°55.289 17.9892 0.038812 0.218805 -0.547855
2009-11-19 08:41:10 51°14.242 2°55.276 17.9857 0.038606 0.217623 -0.547855
2009-11-19 08:41:15 51°14.25 2°55.263 17.9821 0.038195 0.215263 -0.547855
2009-11-19 08:41:20 51°14.258 2°55.249 17.9811 0.038709 0.218214 -0.547855
2009-11-19 08:41:25 51°14.267 2°55.235 17.9864 0.038709 0.218222 -0.547855
2009-11-19 08:41:30 51°14.275 2°55.221 17.9862 0.038297 0.215858 -0.547855
2009-11-19 08:41:35 51°14.283 2°55.206 17.9819 0.038297 0.215858 -0.547855
2009-11-19 08:41:40 51°14.291 2°55.191 17.9777 0.037989 0.214078 -0.547855
2009-11-19 08:41:45 51°14.299 2°55.176 17.9749 0.0384 0.216441 -0.547855
2009-11-19 08:41:50 51°14.308 2°55.161 17.9876 0.039121 0.220592 -0.58268
2009-11-19 08:41:54 51°14.315 2°55.149 17.9831 0.038195 0.215275 -0.547855
2009-11-19 08:42:00 51°14.325 2°55.131 17.9817 0.038297 0.215866 -0.58268
2009-11-19 08:42:05 51°14.334 2°55.116 17.9835 0.038297 0.215866 -0.58268
2009-11-19 08:42:10 51°14.343 2°55.1 17.9764 0.038195 0.215271 -0.547855
2009-11-19 08:42:14 51°14.35 2°55.087 17.9793 0.037886 0.213499 -0.58268
2009-11-19 08:42:20 51°14.36 2°55.067 17.9818 0.038297 0.215866 -0.547855
2009-11-19 08:42:25 51°14.369 2°55.051 17.9897 0.037989 0.214097 -0.58268
2009-11-19 08:42:31 51°14.38 2°55.031 17.9832 0.038297 0.215873 -0.547855
2009-11-19 08:42:34 51°14.386 2°55.021 17.9676 0.038297 0.215873 -0.547855
2009-11-19 08:42:39 51°14.396 2°55.004 17.946 0.037268 0.209953 -0.547855
2009-11-19 08:42:45 51°14.407 2°54.983 17.9585 0.037989 0.214085 -0.547855
2009-11-19 08:42:49 51°14.415 2°54.97 17.9508 0.037783 0.212908 -0.547855
2009-11-19 08:42:54 51°14.426 2°54.954 17.9598 0.03768 0.212318 -0.58268
2009-11-19 08:42:59 51°14.438 2°54.939 17.966 0.038297 0.21587 -0.547855
2009-11-19 08:43:04 51°14.45 2°54.924 17.9517 0.038297 0.21587 -0.547855
2009-11-19 08:43:09 51°14.462 2°54.911 17.9477 0.037577 0.211739 -0.58268
2009-11-19 08:43:14 51°14.474 2°54.897 17.9586 0.037783 0.212889 -0.58268
2009-11-19 08:43:20 51°14.489 2°54.881 17.9583 0.037886 0.213491 -0.547855
2009-11-19 08:43:25 51°14.501 2°54.868 17.9375 0.037268 0.209953 -0.58268
2009-11-19 08:43:30 51°14.514 2°54.855 17.9374 0.037783 0.212912 -0.58268
2009-11-19 08:43:35 51°14.527 2°54.844 17.9464 0.037783 0.212912 -0.58268
2009-11-19 08:43:40 51°14.54 2°54.833 17.9469 0.038709 0.218254 -0.547855
2009-11-19 08:43:45 51°14.554 2°54.823 17.9361 0.037268 0.209983 -0.547855
2009-11-19 08:43:50 51°14.567 2°54.812 17.9395 0.037886 0.213514 -0.58268
2009-11-19 08:43:55 51°14.58 2°54.801 17.923 0.037577 0.211743 -0.58268
2009-11-19 08:44:00 51°14.593 2°54.79 17.8769 0.037783 0.212935 -0.547855
2009-11-19 08:44:05 51°14.607 2°54.78 17.8804 0.037783 0.212935 -0.547855
2009-11-19 08:44:10 51°14.62 2°54.769 17.8777 0.037577 0.211754 -0.547855
2009-11-19 08:44:15 51°14.633 2°54.759 17.8828 0.037063 0.208795 -0.58268
2009-11-19 08:44:21 51°14.65 2°54.745 17.883 0.037989 0.214109 -0.547855
2009-11-19 08:44:25 51°14.661 2°54.737 17.8905 0.037474 0.211164 -0.547855
2009-11-19 08:44:30 51°14.674 2°54.727 17.9057 0.03768 0.212348 -0.58268
2009-11-19 08:44:35 51°14.688 2°54.716 17.8907 0.03768 0.212348 -0.58268
2009-11-19 08:44:40 51°14.701 2°54.706 17.8734 0.037577 0.211766 -0.58268
2009-11-19 08:44:45 51°14.715 2°54.696 17.6499 0.037371 0.210581 -0.547855
2009-11-19 08:44:50 51°14.729 2°54.685 17.6308 0.037371 0.210585 -0.58268
2009-11-19 08:44:55 51°14.742 2°54.675 17.6817 0.037577 0.21177 -0.547855
2009-11-19 08:45:00 51°14.756 2°54.665 17.5214 0.03768 0.212376 -0.58268
2009-11-19 08:45:05 51°14.77 2°54.655 17.5933 0.03768 0.212376 -0.58268
2009-11-19 08:45:10 51°14.783 2°54.645 17.6552 0.037268 0.210025 -0.547855
2009-11-19 08:45:15 51°14.797 2°54.634 17.7149 0.037474 0.211202 -0.547855
2009-11-19 08:45:20 51°14.811 2°54.624 17.751 0.037165 0.209431 -0.547855
2009-11-19 08:45:25 51°14.824 2°54.614 17.7628 0.037577 0.211797 -0.58268
2009-11-19 08:45:30 51°14.838 2°54.604 17.7831 0.037577 0.2118 -0.58268
2009-11-19 08:45:35 51°14.851 2°54.594 17.7918 0.037577 0.2118 -0.58268
2009-11-19 08:45:40 51°14.865 2°54.584 17.8199 0.03696 0.208258 -0.547855
2009-11-19 08:45:45 51°14.879 2°54.574 17.8197 0.037577 0.2118 -0.58268
2009-11-19 08:45:50 51°14.892 2°54.564 17.7234 0.037165 0.209443 -0.58268
2009-11-19 08:45:55 51°14.906 2°54.553 17.6241 0.037371 0.210627 -0.547855
2009-11-19 08:45:58 51°14.914 2°54.547 17.6636 0.038503 0.217135 -0.58268
2009-11-19 08:46:05 51°14.933 2°54.533 17.4395 0.038503 0.217135 -0.58268
2009-11-19 08:46:10 51°14.947 2°54.523 17.522 0.037165 0.209462 -0.547855
2009-11-19 08:46:15 51°14.961 2°54.513 17.5935 0.036857 0.20768 -0.547855
2009-11-19 08:46:20 51°14.974 2°54.503 17.6444 0.037371 0.210642 -0.547855
2009-11-19 08:46:25 51°14.988 2°54.493 17.6992 0.037063 0.208883 -0.547855
2009-11-19 08:46:30 51°15.001 2°54.483 17.7304 0.036651 0.206526 -0.547855
2009-11-19 08:46:34 51°15.012 2°54.475 17.6231 0.036651 0.206526 -0.547855
2009-11-19 08:46:40 51°15.029 2°54.462 17.4661 0.037783 0.213028 -0.547855
2009-11-19 08:46:45 51°15.042 2°54.452 17.5397 0.037165 0.2095 -0.58268
2009-11-19 08:46:50 51°15.056 2°54.442 17.6024 0.036857 0.207736 -0.58268
2009-11-19 08:46:55 51°15.069 2°54.432 17.6459 0.03696 0.208323 -0.58268
2009-11-19 08:47:00 51°15.083 2°54.422 17.6788 0.036548 0.205966 -0.58268
2009-11-19 08:47:05 51°15.098 2°54.411 17.7135 0.036548 0.205966 -0.58268
2009-11-19 08:47:10 51°15.111 2°54.401 17.7322 0.037063 0.208917 -0.58268
2009-11-19 08:47:15 51°15.125 2°54.391 17.747 0.036651 0.206556 -0.58268
2009-11-19 08:47:20 51°15.138 2°54.381 17.7591 0.036651 0.20656 -0.58268
2009-11-19 08:47:25 51°15.151 2°54.37 17.7485 0.037063 0.208925 -0.547855
2009-11-19 08:47:30 51°15.165 2°54.36 17.7895 0.036857 0.207752 -0.58268
2009-11-19 08:47:35 51°15.177 2°54.35 17.7631 0.036857 0.207752 -0.58268
2009-11-19 08:47:40 51°15.19 2°54.339 17.7804 0.036857 0.207744 -0.58268
2009-11-19 08:47:45 51°15.204 2°54.329 17.7737 0.036548 0.205977 -0.58268
2009-11-19 08:47:50 51°15.217 2°54.318 17.7676 0.036857 0.207755 -0.58268
2009-11-19 08:47:55 51°15.23 2°54.307 17.7948 0.03696 0.208368 -0.58268
2009-11-19 08:48:00 51°15.243 2°54.297 17.7791 0.036857 0.207759 -0.547855
2009-11-19 08:48:05 51°15.256 2°54.286 17.7655 0.036857 0.207759 -0.547855
2009-11-19 08:48:10 51°15.269 2°54.276 17.7644 0.036548 0.205989 -0.58268
2009-11-19 08:48:15 51°15.282 2°54.265 17.7576 0.037268 0.21014 -0.547855
2009-11-19 08:48:20 51°15.296 2°54.255 17.7379 0.036754 0.207195 -0.58268
2009-11-19 08:48:25 51°15.309 2°54.244 17.7645 0.036754 0.20721 -0.547855
2009-11-19 08:48:30 51°15.322 2°54.234 17.7609 0.037371 0.21075 -0.58268
2009-11-19 08:48:35 51°15.335 2°54.223 17.3748 0.037371 0.21075 -0.58268
2009-11-19 08:48:40 51°15.348 2°54.213 17.426 0.036239 0.204267 -0.58268
2009-11-19 08:48:45 51°15.362 2°54.203 17.5099 0.036445 0.20544 -0.58268
2009-11-19 08:48:50 51°15.375 2°54.192 17.4378 0.036857 0.207808 -0.58268
2009-11-19 08:48:55 51°15.388 2°54.182 17.5402 0.035828 0.201919 -0.547855
2009-11-19 08:49:00 51°15.401 2°54.171 17.3735 0.036445 0.205481 -0.58268
2009-11-19 08:49:05 51°15.414 2°54.161 17.4265 0.036445 0.205481 -0.58268
2009-11-19 08:49:10 51°15.427 2°54.15 17.5429 0.036754 0.207267 -0.58268
2009-11-19 08:49:15 51°15.44 2°54.14 17.5839 0.035931 0.202568 -0.58268
2009-11-19 08:49:20 51°15.454 2°54.129 17.6055 0.036445 0.205518 -0.58268
2009-11-19 08:49:25 51°15.467 2°54.119 17.6436 0.035725 0.201381 -0.58268
2009-11-19 08:49:30 51°15.48 2°54.107 17.6614 0.036033 0.203147 -0.58268
2009-11-19 08:49:35 51°15.493 2°54.097 17.6701 0.036033 0.203147 -0.58268
2009-11-19 08:49:40 51°15.506 2°54.086 17.6765 0.036651 0.206691 -0.58268
2009-11-19 08:49:45 51°15.519 2°54.076 17.6914 0.035622 0.200799 -0.58268
2009-11-19 08:49:50 51°15.533 2°54.065 17.4962 0.036548 0.20612 -0.58268
2009-11-19 08:49:55 51°15.546 2°54.055 17.5102 0.036342 0.204947 -0.58268
2009-11-19 08:50:00 51°15.558 2°54.043 17.5699 0.035622 0.20081 -0.58268
2009-11-19 08:50:05 51°15.572 2°54.033 17.58 0.035622 0.20081 -0.58268
2009-11-19 08:50:10 51°15.585 2°54.022 17.6487 0.036548 0.206116 -0.58268
2009-11-19 08:50:15 51°15.598 2°54.012 17.6393 0.035725 0.201407 -0.547855
2009-11-19 08:50:20 51°15.611 2°54 17.6707 0.036239 0.204364 -0.547855
2009-11-19 08:50:25 51°15.624 2°53.989 17.6844 0.035725 0.201421 -0.58268
2009-11-19 08:50:30 51°15.638 2°53.978 17.6745 0.035416 0.19966 -0.58268
2009-11-19 08:50:35 51°15.65 2°53.967 17.6942 0.035416 0.19966 -0.58268
2009-11-19 08:50:40 51°15.663 2°53.956 17.3712 0.035622 0.200846 -0.58268
2009-11-19 08:50:45 51°15.676 2°53.944 17.4677 0.03696 0.208532 -0.58268
2009-11-19 08:50:50 51°15.689 2°53.934 17.509 0.036033 0.203243 -0.58268
2009-11-19 08:50:54 51°15.7 2°53.925 17.5483 0.036754 0.20738 -0.58268
2009-11-19 08:51:00 51°15.715 2°53.911 17.5935 0.036033 0.203243 -0.58268
2009-11-19 08:51:05 51°15.728 2°53.9 17.6115 0.036033 0.203243 -0.58268
2009-11-19 08:51:10 51°15.74 2°53.889 17.6439 0.036239 0.204431 -0.58268
2009-11-19 08:51:14 51°15.75 2°53.881 17.6625 0.035725 0.201487 -0.58268
2009-11-19 08:51:20 51°15.766 2°53.868 17.6758 0.036033 0.203269 -0.58268
2009-11-19 08:51:25 51°15.78 2°53.857 17.671 0.035931 0.202678 -0.58268
2009-11-19 08:51:30 51°15.793 2°53.846 17.6848 0.036239 0.204457 -0.58268
2009-11-19 08:51:34 51°15.804 2°53.837 17.6892 0.036239 0.204457 -0.58268
2009-11-19 08:51:40 51°15.82 2°53.824 17.3786 0.036239 0.20446 -0.58268
2009-11-19 08:51:45 51°15.834 2°53.813 17.4398 0.035931 0.202693 -0.58268
2009-11-19 08:51:50 51°15.847 2°53.802 17.5001 0.036033 0.20328 -0.547855
2009-11-19 08:51:54 51°15.858 2°53.793 17.5438 0.036033 0.203298 -0.547855
2009-11-19 08:52:00 51°15.874 2°53.78 17.6028 0.036136 0.203907 -0.58268
2009-11-19 08:52:05 51°15.887 2°53.77 17.5492 0.036136 0.203907 -0.58268
2009-11-19 08:52:10 51°15.901 2°53.759 17.5502 0.036033 0.203328 -0.58268
2009-11-19 08:52:14 51°15.912 2°53.75 17.5627 0.035931 0.202741 -0.58268
2009-11-19 08:52:20 51°15.928 2°53.738 17.5923 0.036033 0.203339 -0.547855
2009-11-19 08:52:25 51°15.942 2°53.727 17.4603 0.036239 0.204527 -0.58268
2009-11-19 08:52:30 51°15.955 2°53.717 17.513 0.035725 0.201597 -0.58268
2009-11-19 08:52:35 51°15.969 2°53.706 17.5428 0.035725 0.201597 -0.58268
2009-11-19 08:52:40 51°15.983 2°53.696 17.5838 0.035931 0.202782 -0.58268
2009-11-19 08:52:45 51°15.997 2°53.685 17.5978 0.036033 0.203368 -0.58268
2009-11-19 08:52:50 51°16.01 2°53.674 17.6386 0.035828 0.202195 -0.58268
2009-11-19 08:52:55 51°16.023 2°53.663 17.6419 0.035828 0.202195 -0.58268
2009-11-19 08:53:00 51°16.036 2°53.652 17.3672 0.036342 0.205163 -0.58268
2009-11-19 08:53:05 51°16.05 2°53.642 17.348 0.036342 0.205163 -0.58268
2009-11-19 08:53:10 51°16.063 2°53.631 17.4249 0.036239 0.204583 -0.58268
2009-11-19 08:53:15 51°16.077 2°53.62 17.4901 0.035828 0.202243 -0.58268
2009-11-19 08:53:20 51°16.09 2°53.61 17.5426 0.035622 0.20108 -0.58268
2009-11-19 08:53:25 51°16.103 2°53.598 17.5643 0.036136 0.204037 -0.547855
2009-11-19 08:53:30 51°16.116 2°53.588 17.6234 0.035828 0.202261 -0.58268
2009-11-19 08:53:35 51°16.129 2°53.577 17.6274 0.035828 0.202261 -0.58268
2009-11-19 08:53:40 51°16.142 2°53.566 17.6579 0.036033 0.20345 -0.547855
2009-11-19 08:53:45 51°16.155 2°53.555 17.3787 0.035725 0.201707 -0.58268
2009-11-19 08:53:50 51°16.169 2°53.545 17.4504 0.036754 0.207675 -0.58268
2009-11-19 08:53:55 51°16.182 2°53.535 17.4985 0.035519 0.200606 -0.58268
2009-11-19 08:54:00 51°16.195 2°53.524 17.5429 0.036239 0.204759 -0.58268
2009-11-19 08:54:05 51°16.208 2°53.513 17.5448 0.036239 0.204759 -0.58268
2009-11-19 08:54:10 51°16.221 2°53.503 17.3401 0.036548 0.206545 -0.58268
2009-11-19 08:54:15 51°16.234 2°53.492 17.4166 0.035622 0.201241 -0.58268
2009-11-19 08:54:20 51°16.248 2°53.482 17.4855 0.035725 0.201839 -0.58268
2009-11-19 08:54:25 51°16.261 2°53.471 17.5381 0.036033 0.203613 -0.58268
2009-11-19 08:54:30 51°16.274 2°53.459 17.5812 0.035828 0.20243 -0.58268
2009-11-19 08:54:35 51°16.287 2°53.448 17.5832 0.035828 0.20243 -0.58268
2009-11-19 08:54:40 51°16.3 2°53.436 17.632 0.035725 0.201843 -0.58268
2009-11-19 08:54:45 51°16.314 2°53.426 17.6304 0.035828 0.202449 -0.58268
2009-11-19 08:54:50 51°16.326 2°53.414 17.6437 0.036239 0.204815 -0.547855
2009-11-19 08:54:55 51°16.339 2°53.402 17.6508 0.036239 0.204822 -0.58268
2009-11-19 08:55:00 51°16.352 2°53.391 17.6577 0.035622 0.201285 -0.58268
2009-11-19 08:55:05 51°16.364 2°53.379 17.6651 0.035622 0.201285 -0.58268
2009-11-19 08:55:10 51°16.377 2°53.367 17.6734 0.035725 0.20188 -0.58268
2009-11-19 08:55:15 51°16.389 2°53.355 17.6655 0.036033 0.203661 -0.58268
2009-11-19 08:55:20 51°16.403 2°53.343 17.6691 0.035931 0.203073 -0.58268
2009-11-19 08:55:25 51°16.415 2°53.331 17.6779 0.035519 0.200719 -0.58268
2009-11-19 08:55:30 51°16.428 2°53.319 17.6722 0.035725 0.201902 -0.58268
2009-11-19 08:55:35 51°16.442 2°53.307 17.6197 0.035725 0.201902 -0.58268
2009-11-19 08:55:40 51°16.454 2°53.295 17.6201 0.035931 0.203103 -0.58268
2009-11-19 08:55:45 51°16.467 2°53.284 17.5559 0.035622 0.201329 -0.58268
2009-11-19 08:55:50 51°16.48 2°53.272 17.5538 0.035622 0.201314 -0.58268
2009-11-19 08:55:55 51°16.493 2°53.26 17.5875 0.035725 0.201905 -0.58268
2009-11-19 08:56:00 51°16.506 2°53.248 17.6136 0.035622 0.201325 -0.58268
2009-11-19 08:56:05 51°16.519 2°53.237 17.6117 0.035622 0.201325 -0.58268
2009-11-19 08:56:10 51°16.532 2°53.225 17.635 0.035519 0.200741 -0.58268
2009-11-19 08:56:15 51°16.545 2°53.213 17.6564 0.036033 0.203713 -0.58268
2009-11-19 08:56:20 51°16.559 2°53.202 17.4575 0.035519 0.200774 -0.58268
2009-11-19 08:56:25 51°16.572 2°53.19 17.4914 0.036136 0.204346 -0.58268
2009-11-19 08:56:30 51°16.585 2°53.179 17.5332 0.035004 0.197855 -0.58268
2009-11-19 08:56:35 51°16.598 2°53.168 17.563 0.035004 0.197855 -0.58268
2009-11-19 08:56:40 51°16.611 2°53.156 17.6293 0.035725 0.201986 -0.58268
2009-11-19 08:56:45 51°16.625 2°53.145 17.6279 0.035725 0.202005 -0.58268
2009-11-19 08:56:50 51°16.638 2°53.134 17.6424 0.035622 0.201432 -0.58268
2009-11-19 08:56:55 51°16.651 2°53.123 17.6309 0.035313 0.199657 -0.58268
2009-11-19 08:57:00 51°16.664 2°53.111 17.4876 0.036136 0.204387 -0.58268
2009-11-19 08:57:05 51°16.677 2°53.1 17.4525 0.036136 0.204387 -0.58268
2009-11-19 08:57:10 51°16.69 2°53.088 17.4729 0.035416 0.20026 -0.58268
2009-11-19 08:57:15 51°16.703 2°53.076 17.5381 0.035519 0.200851 -0.58268
2009-11-19 08:57:20 51°16.715 2°53.064 17.5604 0.035622 0.201443 -0.58268
2009-11-19 08:57:25 51°16.728 2°53.052 17.6024 0.035828 0.202641 -0.58268
2009-11-19 08:57:30 51°16.74 2°53.04 17.6267 0.035725 0.202056 -0.58268
2009-11-19 08:57:35 51°16.753 2°53.029 17.6215 0.035725 0.202056 -0.58268
2009-11-19 08:57:40 51°16.765 2°53.017 17.6502 0.035519 0.20088 -0.58268
2009-11-19 08:57:45 51°16.778 2°53.005 17.6609 0.035828 0.202674 -0.58268
2009-11-19 08:57:50 51°16.79 2°52.993 17.6529 0.035519 0.200895 -0.58268
2009-11-19 08:57:55 51°16.803 2°52.981 17.448 0.035519 0.20091 -0.58268
2009-11-19 08:58:00 51°16.816 2°52.969 17.5121 0.035519 0.200924 -0.58268
2009-11-19 08:58:05 51°16.827 2°52.956 17.5503 0.035519 0.200924 -0.58268
2009-11-19 08:58:10 51°16.839 2°52.945 17.5721 0.03521 0.199153 -0.58268
2009-11-19 08:58:15 51°16.852 2°52.932 17.6208 0.035828 0.202711 -0.58268
2009-11-19 08:58:20 51°16.863 2°52.921 17.6167 0.035313 0.199748 -0.58268
2009-11-19 08:58:25 51°16.875 2°52.908 17.6614 0.035416 0.200355 -0.58268
2009-11-19 08:58:30 51°16.887 2°52.897 17.668 0.036239 0.205125 -0.58268
2009-11-19 08:58:35 51°16.899 2°52.885 17.6657 0.036239 0.205125 -0.58268
2009-11-19 08:58:40 51°16.911 2°52.873 17.6578 0.03521 0.199218 -0.58268
2009-11-19 08:58:45 51°16.924 2°52.862 17.6169 0.035931 0.203352 -0.58268
2009-11-19 08:58:50 51°16.936 2°52.85 17.6117 0.035828 0.202759 -0.58268
2009-11-19 08:58:55 51°16.947 2°52.838 17.6233 0.035313 0.199796 -0.58268
2009-11-19 08:59:00 51°16.959 2°52.826 17.6346 0.035519 0.200979 -0.58268
2009-11-19 08:59:05 51°16.972 2°52.814 17.6645 0.035519 0.200979 -0.58268
2009-11-19 08:59:10 51°16.984 2°52.801 17.6519 0.035828 0.202767 -0.58268
2009-11-19 08:59:15 51°16.997 2°52.789 17.6397 0.035725 0.202219 -0.58268
2009-11-19 08:59:20 51°17.009 2°52.777 17.4389 0.035828 0.202837 -0.58268
2009-11-19 08:59:25 51°17.021 2°52.765 17.4379 0.035931 0.203471 -0.58268
2009-11-19 08:59:30 51°17.033 2°52.753 17.3256 0.036033 0.204086 -0.58268
2009-11-19 08:59:35 51°17.045 2°52.74 17.3872 0.036033 0.204086 -0.58268
2009-11-19 08:59:40 51°17.057 2°52.728 17.4701 0.035519 0.201156 -0.58268
2009-11-19 08:59:45 51°17.069 2°52.715 17.5923 0.03521 0.199342 -0.58268
2009-11-19 08:59:50 51°17.08 2°52.703 17.6045 0.035004 0.198161 -0.58268
2009-11-19 08:59:55 51°17.091 2°52.69 17.5144 0.035416 0.200574 -0.58268
2009-11-19 09:00:00 51°17.104 2°52.678 17.5899 0.035416 0.200585 -0.58268
2009-11-19 09:00:05 51°17.116 2°52.665 17.6606 0.035416 0.200585 -0.58268
2009-11-19 09:00:10 51°17.129 2°52.654 17.6661 0.035004 0.198219 -0.58268
2009-11-19 09:00:15 51°17.141 2°52.641 17.7022 0.035313 0.200004 -0.58268
2009-11-19 09:00:20 51°17.153 2°52.63 17.7017 0.034902 0.197656 -0.58268
2009-11-19 09:00:25 51°17.165 2°52.617 17.7242 0.03521 0.199455 -0.58268
2009-11-19 09:00:30 51°17.177 2°52.605 17.7199 0.034902 0.197685 -0.58268
2009-11-19 09:00:34 51°17.187 2°52.595 17.7219 0.034902 0.197685 -0.58268
2009-11-19 09:00:40 51°17.201 2°52.581 17.7219 0.035004 0.198281 -0.58268
2009-11-19 09:00:45 51°17.214 2°52.569 17.7321 0.035519 0.201259 -0.58268
2009-11-19 09:00:50 51°17.226 2°52.558 17.7377 0.035004 0.198306 -0.58268
2009-11-19 09:00:55 51°17.238 2°52.546 17.3372 0.035519 0.201284 -0.58268
2009-11-19 09:01:00 51°17.25 2°52.534 17.4566 0.035107 0.198939 -0.58268
2009-11-19 09:01:05 51°17.262 2°52.522 17.5149 0.035107 0.198939 -0.58268
2009-11-19 09:01:10 51°17.274 2°52.51 17.5793 0.036136 0.204885 -0.58268
2009-11-19 09:01:15 51°17.286 2°52.498 17.5892 0.035107 0.198971 -0.58268
2009-11-19 09:01:20 51°17.297 2°52.485 17.6405 0.035313 0.200164 -0.58268
2009-11-19 09:01:25 51°17.309 2°52.473 17.6428 0.03521 0.199571 -0.58268
2009-11-19 09:01:30 51°17.32 2°52.46 17.6666 0.03521 0.199579 -0.58268
2009-11-19 09:01:35 51°17.332 2°52.449 17.3663 0.03521 0.199579 -0.58268
2009-11-19 09:01:40 51°17.345 2°52.436 17.3692 0.035416 0.200787 -0.58268
2009-11-19 09:01:45 51°17.357 2°52.424 17.3743 0.035622 0.201996 -0.58268
2009-11-19 09:01:50 51°17.369 2°52.412 17.4564 0.035107 0.199059 -0.58268
2009-11-19 09:01:55 51°17.381 2°52.4 17.5381 0.034902 0.197887 -0.58268
2009-11-19 09:02:00 51°17.393 2°52.387 17.5776 0.035313 0.200267 -0.58268
2009-11-19 09:02:05 51°17.404 2°52.375 17.6157 0.035313 0.200267 -0.58268
2009-11-19 09:02:10 51°17.416 2°52.363 17.445 0.035107 0.19907 -0.58268
2009-11-19 09:02:15 51°17.428 2°52.352 17.3612 0.035004 0.198498 -0.58268
2009-11-19 09:02:20 51°17.44 2°52.339 17.4493 0.034902 0.197855 -0.58268
2009-11-19 09:02:25 51°17.452 2°52.327 17.4995 0.034799 0.197266 -0.58268
2009-11-19 09:02:30 51°17.464 2°52.315 17.5739 0.035313 0.200241 -0.58268
2009-11-19 09:02:35 51°17.476 2°52.303 17.6077 0.035313 0.200241 -0.58268
2009-11-19 09:02:40 51°17.488 2°52.29 17.6598 0.034696 0.19672 -0.58268
2009-11-19 09:02:45 51°17.499 2°52.278 17.6626 0.034696 0.196752 -0.58268
2009-11-19 09:02:50 51°17.511 2°52.266 17.6705 0.035313 0.200344 -0.58268
2009-11-19 09:02:55 51°17.523 2°52.254 17.6796 0.034696 0.196835 -0.58268
2009-11-19 09:03:00 51°17.535 2°52.242 17.6533 0.035004 0.198662 -0.58268
2009-11-19 09:03:05 51°17.548 2°52.23 17.5108 0.035004 0.198662 -0.58268
2009-11-19 09:03:10 51°17.56 2°52.218 17.5208 0.034902 0.198068 -0.58268
2009-11-19 09:03:15 51°17.572 2°52.206 17.5092 0.034902 0.198086 -0.58268
2009-11-19 09:03:20 51°17.584 2°52.193 17.6088 0.035416 0.201125 -0.58268
2009-11-19 09:03:25 51°17.596 2°52.18 17.5458 0.035313 0.200564 -0.58268
2009-11-19 09:03:30 51°17.607 2°52.167 17.4349 0.035416 0.201122 -0.58268
2009-11-19 09:03:35 51°17.619 2°52.155 17.5036 0.035416 0.201122 -0.58268
2009-11-19 09:03:40 51°17.63 2°52.143 17.5285 0.034902 0.198152 -0.58268
2009-11-19 09:03:45 51°17.642 2°52.13 17.445 0.03521 0.199941 -0.58268
2009-11-19 09:03:50 51°17.654 2°52.118 17.495 0.035313 0.20055 -0.58268
2009-11-19 09:03:54 51°17.664 2°52.108 17.4272 0.035313 0.200542 -0.58268
2009-11-19 09:04:00 51°17.678 2°52.093 17.4071 0.036034 0.204681 -0.58268
2009-11-19 09:04:05 51°17.691 2°52.081 17.3885 0.036034 0.204681 -0.58268
2009-11-19 09:04:10 51°17.703 2°52.069 17.4389 0.035931 0.204094 -0.58268
2009-11-19 09:04:14 51°17.713 2°52.059 17.4405 0.035622 0.202307 -0.58268
2009-11-19 09:04:20 51°17.728 2°52.044 17.3446 0.035416 0.201137 -0.58268
2009-11-19 09:04:25 51°17.74 2°52.032 17.3807 0.035828 0.203694 -0.58268
2009-11-19 09:04:30 51°17.752 2°52.02 17.3766 0.035622 0.202586 -0.58268
2009-11-19 09:04:34 51°17.761 2°52.01 17.4417 0.035622 0.202586 -0.58268
2009-11-19 09:04:40 51°17.775 2°51.995 17.4426 0.035519 0.202039 -0.58268
2009-11-19 09:04:45 51°17.787 2°51.982 17.3478 0.035725 0.203282 -0.58268
2009-11-19 09:04:50 51°17.799 2°51.97 17.3983 0.035416 0.201514 -0.58268
2009-11-19 09:04:54 51°17.808 2°51.96 17.3892 0.035416 0.201488 -0.58268
2009-11-19 09:05:00 51°17.822 2°51.946 17.4143 0.035622 0.202675 -0.58268
2009-11-19 09:05:05 51°17.834 2°51.934 17.4078 0.035622 0.202675 -0.58268
2009-11-19 09:05:10 51°17.846 2°51.923 17.3817 0.036239 0.206258 -0.58268
2009-11-19 09:05:14 51°17.856 2°51.913 17.522 0.035107 0.199698 -0.58268
2009-11-19 09:05:20 51°17.87 2°51.899 17.4529 0.035725 0.203357 -0.58268
2009-11-19 09:05:25 51°17.882 2°51.888 17.3845 0.034902 0.198592 -0.58268
2009-11-19 09:05:30 51°17.893 2°51.875 17.4614 0.03449 0.196118 -0.58268
2009-11-19 09:05:34 51°17.902 2°51.865 17.515 0.03449 0.196118 -0.58268
2009-11-19 09:05:40 51°17.916 2°51.85 17.4511 0.034799 0.197906 -0.58268
2009-11-19 09:05:45 51°17.928 2°51.838 17.4874 0.034902 0.198559 -0.58268
2009-11-19 09:05:50 51°17.94 2°51.825 17.5095 0.034902 0.19857 -0.58268
2009-11-19 09:05:55 51°17.952 2°51.814 17.4699 0.034387 0.195592 -0.58268
2009-11-19 09:06:00 51°17.964 2°51.802 17.5178 0.03521 0.200345 -0.58268
2009-11-19 09:06:05 51°17.976 2°51.79 17.5824 0.03521 0.200345 -0.58268
2009-11-19 09:06:10 51°17.988 2°51.778 17.4303 0.034387 0.195581 -0.58268
2009-11-19 09:06:15 51°17.999 2°51.765 17.507 0.035416 0.201532 -0.58268
2009-11-19 09:06:20 51°18.011 2°51.753 17.5321 0.03449 0.196176 -0.58268
2009-11-19 09:06:25 51°18.023 2°51.74 17.4442 0.035004 0.199143 -0.58268
2009-11-19 09:06:30 51°18.035 2°51.728 17.3836 0.03521 0.20033 -0.58268
2009-11-19 09:06:35 51°18.047 2°51.715 17.39 0.03521 0.20033 -0.58268
2009-11-19 09:06:40 51°18.059 2°51.702 17.4488 0.03449 0.19614 -0.58268
2009-11-19 09:06:45 51°18.07 2°51.689 17.518 0.034799 0.19795 -0.58268
2009-11-19 09:06:50 51°18.083 2°51.677 17.3495 0.03521 0.20033 -0.58268
2009-11-19 09:06:55 51°18.095 2°51.664 17.4433 0.034902 0.198519 -0.58268
2009-11-19 09:07:00 51°18.107 2°51.652 17.4198 0.035004 0.199114 -0.58268
2009-11-19 09:07:05 51°18.119 2°51.639 17.4853 0.035004 0.199114 -0.58268
2009-11-19 09:07:10 51°18.131 2°51.627 17.5133 0.034902 0.198537 -0.58268
2009-11-19 09:07:15 51°18.143 2°51.614 17.4601 0.035107 0.199753 -0.58268
2009-11-19 09:07:20 51°18.156 2°51.602 17.5262 0.035622 0.202765 -0.58268
2009-11-19 09:07:25 51°18.168 2°51.59 17.4102 0.035828 0.203968 -0.58268
2009-11-19 09:07:30 51°18.18 2°51.577 17.3836 0.036034 0.205152 -0.58268
2009-11-19 09:07:35 51°18.192 2°51.565 17.4684 0.036034 0.205152 -0.58268
2009-11-19 09:07:40 51°18.205 2°51.552 17.3498 0.035622 0.202757 -0.58268
2009-11-19 09:07:45 51°18.217 2°51.541 17.4257 0.035519 0.202165 -0.58268
2009-11-19 09:07:50 51°18.229 2°51.528 17.3863 0.035725 0.203349 -0.58268
2009-11-19 09:07:55 51°18.241 2°51.516 17.3946 0.036651 0.208739 -0.58268
2009-11-19 09:08:00 51°18.254 2°51.504 17.4276 0.036445 0.207588 -0.58268
2009-11-19 09:08:05 51°18.266 2°51.492 17.5343 0.036445 0.207588 -0.58268
2009-11-19 09:08:10 51°18.278 2°51.48 17.5823 0.035416 0.201651 -0.58268
2009-11-19 09:08:15 51°18.29 2°51.468 17.6353 0.035725 0.203462 -0.58268
2009-11-19 09:08:20 51°18.303 2°51.457 17.4761 0.035622 0.202884 -0.58268
2009-11-19 09:08:25 51°18.315 2°51.444 17.5209 0.035004 0.199305 -0.58268
2009-11-19 09:08:30 51°18.327 2°51.432 17.5533 0.035107 0.199897 -0.58268
2009-11-19 09:08:35 51°18.339 2°51.419 17.5872 0.035107 0.199897 -0.58268
2009-11-19 09:08:40 51°18.351 2°51.407 17.5896 0.035416 0.201688 -0.58268
2009-11-19 09:08:45 51°18.363 2°51.395 17.4504 0.03521 0.200511 -0.58268
2009-11-19 09:08:50 51°18.375 2°51.383 17.441 0.03521 0.200529 -0.58268
2009-11-19 09:08:55 51°18.386 2°51.37 17.4603 0.035931 0.204711 -0.58268
2009-11-19 09:09:00 51°18.398 2°51.357 17.4821 0.035622 0.202921 -0.58268
2009-11-19 09:09:05 51°18.41 2°51.345 17.5352 0.035622 0.202921 -0.58268
2009-11-19 09:09:10 51°18.422 2°51.331 17.4864 0.035519 0.202318 -0.58268
2009-11-19 09:09:15 51°18.434 2°51.319 17.5232 0.034593 0.196944 -0.58268
2009-11-19 09:09:20 51°18.446 2°51.306 17.5348 0.034799 0.198124 -0.58268
2009-11-19 09:09:25 51°18.457 2°51.293 17.5368 0.035004 0.199308 -0.58268
2009-11-19 09:09:30 51°18.469 2°51.281 17.5747 0.034799 0.198117 -0.58268
2009-11-19 09:09:34 51°18.48 2°51.27 17.4625 0.034799 0.198117 -0.58268
2009-11-19 09:09:40 51°18.494 2°51.255 17.4207 0.034902 0.198716 -0.58268
2009-11-19 09:09:45 51°18.506 2°51.243 17.4274 0.035519 0.202295 -0.617504
2009-11-19 09:09:50 51°18.518 2°51.23 17.413 0.035107 0.1999 -0.58268
2009-11-19 09:09:55 51°18.529 2°51.217 17.4684 0.035313 0.201092 -0.58268
2009-11-19 09:10:00 51°18.542 2°51.205 17.3778 0.035416 0.201692 -0.58268
2009-11-19 09:10:05 51°18.554 2°51.192 17.419 0.035416 0.201692 -0.58268
2009-11-19 09:10:10 51°18.566 2°51.18 17.3751 0.035107 0.199908 -0.58268
2009-11-19 09:10:15 51°18.577 2°51.168 17.467 0.035004 0.199316 -0.58268
2009-11-19 09:10:20 51°18.59 2°51.155 17.4521 0.035004 0.199316 -0.58268
2009-11-19 09:10:25 51°18.602 2°51.143 17.3554 0.035416 0.201695 -0.58268
2009-11-19 09:10:30 51°18.613 2°51.13 17.4132 0.034696 0.197518 -0.58268
2009-11-19 09:10:35 51°18.625 2°51.117 17.4704 0.034696 0.197518 -0.58268
2009-11-19 09:10:40 51°18.637 2°51.104 17.4232 0.03521 0.200485 -0.58268
2009-11-19 09:10:45 51°18.65 2°51.091 17.456 0.034593 0.196915 -0.58268
2009-11-19 09:10:50 51°18.662 2°51.078 17.4263 0.034387 0.195732 -0.58268
2009-11-19 09:10:55 51°18.674 2°51.065 17.4812 0.034593 0.196933 -0.58268
2009-11-19 09:11:00 51°18.687 2°51.052 17.4455 0.035107 0.199922 -0.58268
2009-11-19 09:11:05 51°18.7 2°51.04 17.4148 0.035107 0.199922 -0.58268
2009-11-19 09:11:10 51°18.712 2°51.027 17.3646 0.035622 0.202978 -0.58268
2009-11-19 09:11:15 51°18.724 2°51.014 17.3837 0.035004 0.199382 -0.58268
2009-11-19 09:11:20 51°18.737 2°51.002 17.4082 0.034387 0.195743 -0.58268
2009-11-19 09:11:25 51°18.749 2°50.988 17.4356 0.03449 0.196349 -0.58268
2009-11-19 09:11:30 51°18.762 2°50.976 17.4074 0.034902 0.198764 -0.58268
2009-11-19 09:11:35 51°18.774 2°50.964 17.4705 0.034902 0.198764 -0.58268
2009-11-19 09:11:40 51°18.786 2°50.95 17.4941 0.034696 0.197583 -0.58268
2009-11-19 09:11:45 51°18.798 2°50.938 17.4706 0.03449 0.196443 -0.58268
2009-11-19 09:11:50 51°18.81 2°50.925 17.5569 0.034593 0.1971 -0.58268
2009-11-19 09:11:54 51°18.82 2°50.916 17.5846 0.034902 0.19891 -0.58268
2009-11-19 09:12:00 51°18.834 2°50.9 17.5707 0.034696 0.197725 -0.58268
2009-11-19 09:12:05 51°18.847 2°50.889 17.5863 0.034696 0.197725 -0.58268
2009-11-19 09:12:10 51°18.858 2°50.876 17.515 0.034284 0.195309 -0.58268
2009-11-19 09:12:15 51°18.87 2°50.863 17.401 0.035107 0.200088 -0.58268
2009-11-19 09:12:20 51°18.882 2°50.851 17.4596 0.034902 0.198833 -0.58268
2009-11-19 09:12:25 51°18.894 2°50.838 17.5294 0.03449 0.196454 -0.58268
2009-11-19 09:12:30 51°18.906 2°50.826 17.3851 0.034799 0.19827 -0.58268
2009-11-19 09:12:35 51°18.918 2°50.813 17.4638 0.034799 0.19827 -0.58268
2009-11-19 09:12:40 51°18.93 2°50.801 17.5092 0.03449 0.196519 -0.58268
2009-11-19 09:12:45 51°18.942 2°50.787 17.4417 0.034387 0.195934 -0.58268
2009-11-19 09:12:50 51°18.954 2°50.774 17.401 0.034593 0.197129 -0.58268
2009-11-19 09:12:55 51°18.966 2°50.761 17.4396 0.034902 0.198855 -0.58268
2009-11-19 09:13:00 51°18.978 2°50.748 17.4366 0.035519 0.202433 -0.58268
2009-11-19 09:13:05 51°18.99 2°50.736 17.4029 0.035519 0.202433 -0.58268
2009-11-19 09:13:10 51°19.001 2°50.722 17.3866 0.034593 0.197082 -0.58268
2009-11-19 09:13:14 51°19.011 2°50.712 17.3842 0.034902 0.198877 -0.58268
2009-11-19 09:13:20 51°19.025 2°50.698 17.4302 0.03449 0.19649 -0.58268
2009-11-19 09:13:25 51°19.037 2°50.685 17.5009 0.034799 0.198296 -0.58268
2009-11-19 09:13:30 51°19.048 2°50.673 17.5414 0.034284 0.195313 -0.58268
2009-11-19 09:13:34 51°19.058 2°50.664 17.4985 0.034284 0.195313 -0.58268
2009-11-19 09:13:40 51°19.072 2°50.649 17.4041 0.034593 0.197115 -0.58268
2009-11-19 09:13:45 51°19.083 2°50.636 17.4244 0.034799 0.198288 -0.617504
2009-11-19 09:13:50 51°19.095 2°50.624 17.4463 0.035004 0.199495 -0.617504
2009-11-19 09:13:55 51°19.107 2°50.611 17.419 0.035004 0.199506 -0.58268
2009-11-19 09:14:00 51°19.119 2°50.599 17.464 0.034284 0.195341 -0.617504
2009-11-19 09:14:05 51°19.131 2°50.586 17.5274 0.034284 0.195341 -0.617504
2009-11-19 09:14:10 51°19.143 2°50.573 17.4841 0.034696 0.197714 -0.58268
2009-11-19 09:14:15 51°19.155 2°50.562 17.4892 0.034387 0.195926 -0.58268
2009-11-19 09:14:20 51°19.167 2°50.549 17.5425 0.034902 0.198921 -0.617504
2009-11-19 09:14:25 51°19.179 2°50.537 17.4597 0.034284 0.195349 -0.58268
2009-11-19 09:14:30 51°19.192 2°50.525 17.454 0.034593 0.19714 -0.58268
2009-11-19 09:14:35 51°19.204 2°50.513 17.4256 0.034593 0.19714 -0.58268
2009-11-19 09:14:40 51°19.216 2°50.5 17.3917 0.034902 0.198932 -0.58268
2009-11-19 09:14:45 51°19.228 2°50.488 17.443 0.035107 0.20011 -0.58268
2009-11-19 09:14:50 51°19.24 2°50.475 17.4848 0.034902 0.198928 -0.58268
2009-11-19 09:14:55 51°19.252 2°50.463 17.5232 0.034387 0.195948 -0.58268
2009-11-19 09:15:00 51°19.265 2°50.451 17.582 0.034696 0.197736 -0.58268
2009-11-19 09:15:05 51°19.277 2°50.44 17.3983 0.034696 0.197736 -0.58268
2009-11-19 09:15:10 51°19.289 2°50.427 17.3999 0.034696 0.197747 -0.58268
2009-11-19 09:15:14 51°19.299 2°50.418 17.4296 0.035004 0.199562 -0.58268
2009-11-19 09:15:20 51°19.313 2°50.402 17.4673 0.035519 0.202527 -0.58268
2009-11-19 09:15:25 51°19.325 2°50.391 17.4889 0.034902 0.199042 -0.58268
2009-11-19 09:15:30 51°19.338 2°50.378 17.4321 0.035004 0.199665 -0.58268
2009-11-19 09:15:34 51°19.347 2°50.368 17.4023 0.035004 0.199665 -0.58268
2009-11-19 09:15:40 51°19.362 2°50.352 17.462 0.034902 0.199072 -0.58268
2009-11-19 09:15:45 51°19.374 2°50.34 17.394 0.03449 0.196689 -0.58268
2009-11-19 09:15:50 51°19.386 2°50.327 17.4088 0.035725 0.203822 -0.617504
2009-11-19 09:15:55 51°19.399 2°50.314 17.4258 0.035107 0.200239 -0.58268
2009-11-19 09:16:00 51°19.411 2°50.301 17.4234 0.034696 0.197838 -0.58268
2009-11-19 09:16:05 51°19.424 2°50.289 17.4699 0.034696 0.197838 -0.58268
2009-11-19 09:16:10 51°19.436 2°50.276 17.4688 0.035107 0.20021 -0.58268
2009-11-19 09:16:15 51°19.449 2°50.264 17.4788 0.03449 0.196634 -0.58268
2009-11-19 09:16:20 51°19.461 2°50.251 17.4272 0.035107 0.200221 -0.58268
2009-11-19 09:16:25 51°19.474 2°50.239 17.4872 0.03449 0.196645 -0.58268
2009-11-19 09:16:30 51°19.486 2°50.226 17.4544 0.035004 0.199628 -0.58268
2009-11-19 09:16:35 51°19.499 2°50.214 17.4915 0.035004 0.199628 -0.58268
2009-11-19 09:16:40 51°19.511 2°50.202 17.4421 0.034696 0.197831 -0.58268
2009-11-19 09:16:45 51°19.524 2°50.19 17.5096 0.035622 0.203202 -0.58268
2009-11-19 09:16:50 51°19.537 2°50.178 17.4571 0.034696 0.197831 -0.58268
2009-11-19 09:16:55 51°19.55 2°50.165 17.468 0.035416 0.202008 -0.58268
2009-11-19 09:17:00 51°19.562 2°50.153 17.5207 0.034902 0.199024 -0.58268
2009-11-19 09:17:05 51°19.574 2°50.141 17.4635 0.034902 0.199024 -0.58268
2009-11-19 09:17:10 51°19.586 2°50.128 17.5123 0.03521 0.200818 -0.617504
2009-11-19 09:17:15 51°19.598 2°50.115 17.4158 0.034902 0.199031 -0.58268
2009-11-19 09:17:20 51°19.611 2°50.103 17.4692 0.03521 0.200822 -0.58268
2009-11-19 09:17:25 51°19.623 2°50.09 17.4203 0.03521 0.200814 -0.58268
2009-11-19 09:17:30 51°19.635 2°50.077 17.4228 0.03521 0.200833 -0.58268
2009-11-19 09:17:35 51°19.648 2°50.064 17.4328 0.03521 0.200833 -0.58268
2009-11-19 09:17:40 51°19.66 2°50.051 17.4745 0.034696 0.197838 -0.58268
2009-11-19 09:17:45 51°19.673 2°50.038 17.4484 0.03521 0.20081 -0.58268
2009-11-19 09:17:50 51°19.685 2°50.026 17.5289 0.035107 0.200247 -0.58268
2009-11-19 09:17:55 51°19.698 2°50.015 17.4431 0.03521 0.200844 -0.58268
2009-11-19 09:18:00 51°19.711 2°50.002 17.4571 0.034696 0.197874 -0.58268
2009-11-19 09:18:05 51°19.723 2°49.99 17.5039 0.034696 0.197874 -0.58268
2009-11-19 09:18:10 51°19.735 2°49.978 17.544 0.034593 0.197267 -0.58268
2009-11-19 09:18:15 51°19.747 2°49.966 17.577 0.034593 0.19726 -0.58268
2009-11-19 09:18:20 51°19.759 2°49.954 17.5728 0.034284 0.195467 -0.58268
2009-11-19 09:18:25 51°19.771 2°49.941 17.4444 0.036754 0.209805 -0.58268
2009-11-19 09:18:30 51°19.783 2°49.929 17.4773 0.035622 0.20327 -0.617504
2009-11-19 09:18:35 51°19.796 2°49.916 17.5171 0.035622 0.20327 -0.617504
2009-11-19 09:18:40 51°19.808 2°49.904 17.5458 0.03521 0.200877 -0.58268
2009-11-19 09:18:45 51°19.821 2°49.891 17.5924 0.034902 0.199086 -0.58268
2009-11-19 09:18:50 51°19.833 2°49.878 17.5052 0.035004 0.199676 -0.58268
2009-11-19 09:18:55 51°19.845 2°49.866 17.4419 0.035725 0.203864 -0.58268
2009-11-19 09:19:00 51°19.857 2°49.853 17.4988 0.035004 0.199668 -0.617504
2009-11-19 09:19:05 51°19.87 2°49.84 17.4884 0.035004 0.199668 -0.617504
2009-11-19 09:19:10 51°19.882 2°49.828 17.5006 0.035519 0.202639 -0.58268
2009-11-19 09:19:15 51°19.894 2°49.814 17.4864 0.035725 0.20383 -0.58268
2009-11-19 09:19:20 51°19.906 2°49.801 17.502 0.034902 0.199086 -0.58268
2009-11-19 09:19:25 51°19.919 2°49.789 17.5017 0.034696 0.197926 -0.58268
2009-11-19 09:19:30 51°19.931 2°49.776 17.4825 0.036548 0.208709 -0.58268
2009-11-19 09:19:35 51°19.943 2°49.764 17.4826 0.036548 0.208709 -0.58268
2009-11-19 09:19:40 51°19.955 2°49.752 17.4659 0.034799 0.198544 -0.58268
2009-11-19 09:19:45 51°19.967 2°49.739 17.4732 0.03521 0.200925 -0.58268
2009-11-19 09:19:50 51°19.98 2°49.727 17.494 0.035416 0.20212 -0.617504
2009-11-19 09:19:54 51°19.989 2°49.717 17.5068 0.03521 0.200929 -0.617504
2009-11-19 09:20:00 51°20.004 2°49.703 17.4968 0.035725 0.203909 -0.58268
2009-11-19 09:20:05 51°20.016 2°49.69 17.4763 0.035725 0.203909 -0.58268
2009-11-19 09:20:10 51°20.028 2°49.677 17.5245 0.03521 0.200914 -0.58268
2009-11-19 09:20:15 51°20.041 2°49.665 17.4946 0.036651 0.209319 -0.58268
2009-11-19 09:20:20 51°20.053 2°49.652 17.523 0.035931 0.205142 -0.617504
2009-11-19 09:20:25 51°20.065 2°49.64 17.4997 0.035931 0.205135 -0.617504
2009-11-19 09:20:30 51°20.077 2°49.627 17.4909 0.036034 0.205744 -0.58268
2009-11-19 09:20:35 51°20.09 2°49.614 17.5169 0.036034 0.205744 -0.58268
2009-11-19 09:20:40 51°20.102 2°49.601 17.4907 0.035313 0.201564 -0.58268
2009-11-19 09:20:45 51°20.115 2°49.589 17.4705 0.035107 0.200354 -0.617504
2009-11-19 09:20:50 51°20.127 2°49.575 17.4669 0.036445 0.208114 -0.617504
2009-11-19 09:20:55 51°20.139 2°49.563 17.5236 0.035313 0.201534 -0.617504
2009-11-19 09:21:00 51°20.152 2°49.549 17.4831 0.036034 0.205714 -0.617504
2009-11-19 09:21:05 51°20.164 2°49.536 17.4605 0.036034 0.205714 -0.617504
2009-11-19 09:21:10 51°20.176 2°49.523 17.4961 0.035107 0.200343 -0.58268
2009-11-19 09:21:15 51°20.188 2°49.51 17.5049 0.034593 0.197354 -0.58268
2009-11-19 09:21:20 51°20.201 2°49.497 17.5563 0.034387 0.196165 -0.58268
2009-11-19 09:21:25 51°20.213 2°49.484 17.5417 0.034696 0.197958 -0.58268
2009-11-19 09:21:30 51°20.225 2°49.47 17.5248 0.035416 0.202131 -0.617504
2009-11-19 09:21:35 51°20.237 2°49.458 17.4919 0.035416 0.202131 -0.617504
2009-11-19 09:21:40 51°20.248 2°49.444 17.4934 0.035004 0.199727 -0.58268
2009-11-19 09:21:45 51°20.26 2°49.431 17.5021 0.035004 0.19972 -0.58268
2009-11-19 09:21:50 51°20.273 2°49.418 17.4997 0.035725 0.203905 -0.58268
2009-11-19 09:21:55 51°20.285 2°49.405 17.5038 0.034902 0.199112 -0.617504
2009-11-19 09:22:00 51°20.296 2°49.391 17.4999 0.035004 0.199716 -0.58268
2009-11-19 09:22:05 51°20.309 2°49.379 17.5376 0.035004 0.199716 -0.58268
2009-11-19 09:22:10 51°20.321 2°49.365 17.4557 0.034284 0.195557 -0.58268
2009-11-19 09:22:15 51°20.332 2°49.352 17.5335 0.035725 0.203939 -0.58268
2009-11-19 09:22:20 51°20.344 2°49.341 17.4697 0.03521 0.200966 -0.617504
2009-11-19 09:22:25 51°20.356 2°49.326 17.5109 0.036754 0.209937 -0.58268
2009-11-19 09:22:30 51°20.368 2°49.315 17.5748 0.03521 0.200992 -0.617504
2009-11-19 09:22:35 51°20.38 2°49.303 17.4842 0.03521 0.200992 -0.617504
2009-11-19 09:22:40 51°20.391 2°49.288 17.5437 0.036342 0.207562 -0.58268
2009-11-19 09:22:45 51°20.404 2°49.278 17.5897 0.035931 0.20518 -0.617504
2009-11-19 09:22:50 51°20.416 2°49.264 17.4783 0.035519 0.202804 -0.58268
2009-11-19 09:22:55 51°20.429 2°49.252 17.4907 0.036239 0.207002 -0.58268
2009-11-19 09:23:00 51°20.441 2°49.24 17.5032 0.035416 0.202206 -0.58268
2009-11-19 09:23:05 51°20.454 2°49.228 17.5014 0.035416 0.202206 -0.58268
2009-11-19 09:23:10 51°20.466 2°49.215 17.5182 0.035828 0.204571 -0.58268
2009-11-19 09:23:14 51°20.476 2°49.205 17.5159 0.035004 0.199783 -0.58268
2009-11-19 09:23:20 51°20.49 2°49.19 17.5222 0.035004 0.199772 -0.58268
2009-11-19 09:23:25 51°20.503 2°49.177 17.5205 0.034696 0.197969 -0.58268
2009-11-19 09:23:30 51°20.516 2°49.166 17.5511 0.035313 0.201549 -0.617504
2009-11-19 09:23:35 51°20.528 2°49.152 17.5195 0.035313 0.201549 -0.617504
2009-11-19 09:23:40 51°20.541 2°49.141 17.4926 0.034593 0.197365 -0.617504
2009-11-19 09:23:45 51°20.553 2°49.127 17.5489 0.03449 0.196736 -0.58268
2009-11-19 09:23:50 51°20.566 2°49.115 17.5629 0.034284 0.195561 -0.58268
2009-11-19 09:23:55 51°20.578 2°49.102 17.5583 0.03449 0.196787 -0.58268
2009-11-19 09:24:00 51°20.591 2°49.09 17.4942 0.03449 0.196798 -0.617504
2009-11-19 09:24:05 51°20.604 2°49.077 17.5316 0.03449 0.196798 -0.617504
2009-11-19 09:24:10 51°20.616 2°49.065 17.5167 0.034593 0.197423 -0.617504
2009-11-19 09:24:14 51°20.626 2°49.055 17.529 0.034696 0.198013 -0.58268
2009-11-19 09:24:20 51°20.641 2°49.041 17.5518 0.037268 0.212991 -0.58268
2009-11-19 09:24:25 51°20.654 2°49.032 17.5038 0.036136 0.206381 -0.58268
2009-11-19 09:24:30 51°20.667 2°49.02 17.5518 0.035622 0.203394 -0.617504
2009-11-19 09:24:35 51°20.68 2°49.011 17.5071 0.035622 0.203394 -0.617504
2009-11-19 09:24:40 51°20.693 2°49.001 17.5309 0.036651 0.209389 -0.58268
2009-11-19 09:24:45 51°20.707 2°48.993 17.5406 0.035931 0.205203 -0.617504
2009-11-19 09:24:50 51°20.72 2°48.984 17.512 0.035725 0.204003 -0.617504
2009-11-19 09:24:55 51°20.733 2°48.975 17.5647 0.036239 0.20699 -0.58268
2009-11-19 09:25:00 51°20.747 2°48.967 17.5498 0.036342 0.2076 -0.617504
2009-11-19 09:25:05 51°20.76 2°48.959 17.5288 0.036342 0.2076 -0.617504
2009-11-19 09:25:10 51°20.773 2°48.951 17.5285 0.036857 0.210567 -0.58268
2009-11-19 09:25:15 51°20.787 2°48.944 17.5405 0.035725 0.204007 -0.58268
2009-11-19 09:25:20 51°20.801 2°48.936 17.5306 0.036239 0.207021 -0.58268
2009-11-19 09:25:25 51°20.815 2°48.928 17.5091 0.036136 0.206438 -0.58268
2009-11-19 09:25:30 51°20.828 2°48.92 17.5355 0.036034 0.205851 -0.617504
2009-11-19 09:25:35 51°20.842 2°48.914 17.5263 0.036034 0.205851 -0.617504
2009-11-19 09:25:40 51°20.856 2°48.906 17.5923 0.036239 0.207056 -0.58268
2009-11-19 09:25:45 51°20.87 2°48.9 17.5496 0.036548 0.208848 -0.617504
2009-11-19 09:25:50 51°20.883 2°48.893 17.5493 0.035931 0.20526 -0.617504
2009-11-19 09:25:55 51°20.897 2°48.885 17.5391 0.035622 0.203462 -0.58268
2009-11-19 09:26:00 51°20.911 2°48.877 17.5437 0.035828 0.204647 -0.617504
2009-11-19 09:26:05 51°20.925 2°48.871 17.5513 0.035828 0.204647 -0.617504
2009-11-19 09:26:10 51°20.939 2°48.862 17.5518 0.03696 0.211225 -0.58268
2009-11-19 09:26:15 51°20.952 2°48.856 17.5317 0.035725 0.204022 -0.58268
2009-11-19 09:26:20 51°20.966 2°48.847 17.5533 0.035622 0.203435 -0.617504
2009-11-19 09:26:25 51°20.98 2°48.84 17.5464 0.036034 0.205828 -0.58268
2009-11-19 09:26:30 51°20.994 2°48.832 17.5688 0.035622 0.203439 -0.58268
2009-11-19 09:26:35 51°21.007 2°48.826 17.5504 0.035622 0.203439 -0.58268
2009-11-19 09:26:40 51°21.021 2°48.818 17.5947 0.036548 0.208802 -0.58268
2009-11-19 09:26:45 51°21.035 2°48.811 17.5335 0.03521 0.201037 -0.617504
2009-11-19 09:26:50 51°21.048 2°48.803 17.5961 0.03696 0.211201 -0.58268
2009-11-19 09:26:55 51°21.062 2°48.798 17.5583 0.037063 0.211796 -0.617504
2009-11-19 09:27:00 51°21.075 2°48.79 17.5208 0.037063 0.211812 -0.617504
2009-11-19 09:27:05 51°21.089 2°48.783 17.568 0.037063 0.211812 -0.617504
2009-11-19 09:27:10 51°21.102 2°48.776 17.6125 0.03521 0.201033 -0.58268
2009-11-19 09:27:15 51°21.116 2°48.768 17.5252 0.035725 0.204033 -0.617504
2009-11-19 09:27:20 51°21.129 2°48.759 17.5245 0.037166 0.212411 -0.58268
2009-11-19 09:27:25 51°21.143 2°48.753 17.6225 0.036548 0.208871 -0.58268
2009-11-19 09:27:30 51°21.156 2°48.746 17.5373 0.037474 0.214237 -0.617504
2009-11-19 09:27:35 51°21.169 2°48.737 17.6187 0.037474 0.214237 -0.617504
2009-11-19 09:27:40 51°21.183 2°48.732 17.5432 0.03768 0.215485 -0.58268
2009-11-19 09:27:45 51°21.196 2°48.722 17.5958 0.038503 0.220291 -0.58268
2009-11-19 09:27:50 51°21.21 2°48.716 17.5845 0.037577 0.214913 -0.617504
2009-11-19 09:27:54 51°21.221 2°48.71 17.6041 0.03696 0.211311 -0.617504
2009-11-19 09:28:00 51°21.237 2°48.701 17.5461 0.037783 0.216097 -0.617504
2009-11-19 09:28:05 51°21.251 2°48.693 17.5984 0.037783 0.216097 -0.617504
2009-11-19 09:28:10 51°21.265 2°48.686 17.5599 0.036548 0.208887 -0.58268
2009-11-19 09:28:15 51°21.278 2°48.677 17.5928 0.037783 0.216057 -0.58268
2009-11-19 09:28:20 51°21.293 2°48.671 17.5815 0.037886 0.216649 -0.617504
2009-11-19 09:28:25 51°21.307 2°48.663 17.5677 0.035519 0.202852 -0.617504
2009-11-19 09:28:30 51°21.32 2°48.655 17.5851 0.035416 0.202247 -0.58268
2009-11-19 09:28:35 51°21.334 2°48.649 17.5589 0.035416 0.202247 -0.58268
2009-11-19 09:28:40 51°21.348 2°48.64 17.6033 0.036239 0.207033 -0.617504
2009-11-19 09:28:45 51°21.362 2°48.634 17.5592 0.034799 0.198662 -0.58268
2009-11-19 09:28:50 51°21.376 2°48.625 17.5956 0.036548 0.208836 -0.58268
2009-11-19 09:28:54 51°21.388 2°48.621 17.5849 0.035313 0.201657 -0.617504
2009-11-19 09:29:00 51°21.404 2°48.61 17.5713 0.035828 0.204654 -0.617504
2009-11-19 09:29:05 51°21.419 2°48.604 17.625 0.035828 0.204654 -0.617504
2009-11-19 09:29:10 51°21.433 2°48.596 17.6063 0.036342 0.20765 -0.58268
2009-11-19 09:29:15 51°21.447 2°48.59 17.5697 0.035107 0.20048 -0.617504
2009-11-19 09:29:20 51°21.461 2°48.581 17.6135 0.036034 0.205862 -0.617504
2009-11-19 09:29:25 51°21.475 2°48.574 17.572 0.035622 0.203469 -0.617504
2009-11-19 09:29:30 51°21.489 2°48.566 17.6261 0.036239 0.207059 -0.58268
2009-11-19 09:29:35 51°21.503 2°48.559 17.5783 0.036239 0.207059 -0.58268
2009-11-19 09:29:40 51°21.517 2°48.551 17.5889 0.035313 0.201675 -0.617504
2009-11-19 09:29:45 51°21.531 2°48.543 17.6109 0.035725 0.204064 -0.58268
2009-11-19 09:29:50 51°21.545 2°48.536 17.6142 0.035519 0.202867 -0.617504
2009-11-19 09:29:55 51°21.559 2°48.528 17.6422 0.035519 0.202864 -0.58268
2009-11-19 09:30:00 51°21.573 2°48.522 17.5959 0.036445 0.208245 -0.58268
2009-11-19 09:30:05 51°21.587 2°48.513 17.6195 0.036445 0.208245 -0.58268
2009-11-19 09:30:10 51°21.602 2°48.507 17.6258 0.035313 0.201683 -0.617504
2009-11-19 09:30:15 51°21.615 2°48.499 17.6317 0.035622 0.203462 -0.58268
2009-11-19 09:30:20 51°21.629 2°48.494 17.5763 0.034902 0.19927 -0.617504
2009-11-19 09:30:25 51°21.643 2°48.484 17.6518 0.035416 0.202266 -0.617504
2009-11-19 09:30:30 51°21.657 2°48.478 17.6273 0.035622 0.203481 -0.617504
2009-11-19 09:30:35 51°21.671 2°48.47 17.5652 0.035622 0.203481 -0.617504
2009-11-19 09:30:40 51°21.685 2°48.464 17.6206 0.036136 0.206503 -0.58268
2009-11-19 09:30:45 51°21.699 2°48.455 17.6049 0.036136 0.206449 -0.617504
2009-11-19 09:30:50 51°21.713 2°48.448 17.6596 0.037371 0.213658 -0.617504
2009-11-19 09:30:55 51°21.727 2°48.441 17.5981 0.037166 0.212455 -0.617504
2009-11-19 09:31:00 51°21.74 2°48.434 17.6613 0.036651 0.209474 -0.58268
2009-11-19 09:31:05 51°21.755 2°48.427 17.5843 0.036651 0.209474 -0.58268
2009-11-19 09:31:10 51°21.768 2°48.418 17.6476 0.035725 0.204064 -0.58268
2009-11-19 09:31:15 51°21.782 2°48.411 17.659 0.035313 0.201713 -0.617504
2009-11-19 09:31:20 51°21.795 2°48.402 17.6384 0.035931 0.205283 -0.617504
2009-11-19 09:31:25 51°21.809 2°48.393 17.6821 0.036342 0.207674 -0.58268
2009-11-19 09:31:30 51°21.823 2°48.385 17.6852 0.03521 0.201085 -0.58268
2009-11-19 09:31:35 51°21.836 2°48.374 17.7187 0.03521 0.201085 -0.58268
2009-11-19 09:31:40 51°21.85 2°48.365 17.7559 0.036857 0.210668 -0.617504
2009-11-19 09:31:45 51°21.863 2°48.354 17.6028 0.03521 0.2011 -0.58268
2009-11-19 09:31:50 51°21.876 2°48.343 17.6885 0.035828 0.204685 -0.617504
2009-11-19 09:31:55 51°21.89 2°48.332 17.6098 0.034799 0.198731 -0.617504
2009-11-19 09:32:00 51°21.902 2°48.32 17.6027 0.035416 0.202307 -0.617504
2009-11-19 09:32:05 51°21.915 2°48.308 17.6523 0.035416 0.202307 -0.617504
2009-11-19 09:32:10 51°21.929 2°48.297 17.6246 0.034696 0.198123 -0.617504
2009-11-19 09:32:15 51°21.941 2°48.284 17.5903 0.035725 0.20409 -0.617504
2009-11-19 09:32:20 51°21.954 2°48.273 17.6451 0.034593 0.1975 -0.617504
2009-11-19 09:32:25 51°21.967 2°48.261 17.6332 0.03449 0.19687 -0.617504
2009-11-19 09:32:30 51°21.98 2°48.249 17.6671 0.034284 0.195683 -0.58268
2009-11-19 09:32:35 51°21.993 2°48.237 17.6792 0.034284 0.195683 -0.58268
2009-11-19 09:32:40 51°22.006 2°48.225 17.69 0.034181 0.195079 -0.617504
2009-11-19 09:32:45 51°22.019 2°48.213 17.732 0.034181 0.195094 -0.58268
2009-11-19 09:32:50 51°22.032 2°48.202 17.6252 0.034078 0.194497 -0.617504
2009-11-19 09:32:55 51°22.045 2°48.189 17.6259 0.035313 0.201716 -0.617504
2009-11-19 09:33:00 51°22.058 2°48.177 17.6461 0.034696 0.198159 -0.58268
2009-11-19 09:33:05 51°22.071 2°48.165 17.6499 0.034696 0.198159 -0.58268
2009-11-19 09:33:10 51°22.084 2°48.154 17.6931 0.035416 0.202359 -0.617504
2009-11-19 09:33:15 51°22.097 2°48.142 17.6422 0.034902 0.199377 -0.617504
2009-11-19 09:33:20 51°22.11 2°48.13 17.6569 0.034902 0.19938 -0.58268
2009-11-19 09:33:25 51°22.123 2°48.118 17.6024 0.035313 0.201754 -0.617504
2009-11-19 09:33:30 51°22.136 2°48.106 17.6778 0.035107 0.200554 -0.617504
2009-11-19 09:33:35 51°22.149 2°48.095 17.6983 0.035107 0.200554 -0.617504
2009-11-19 09:33:40 51°22.162 2°48.083 17.6131 0.035107 0.20055 -0.617504
2009-11-19 09:33:45 51°22.175 2°48.071 17.6302 0.03521 0.201137 -0.617504
2009-11-19 09:33:50 51°22.188 2°48.059 17.608 0.034799 0.198739 -0.58268
2009-11-19 09:33:55 51°22.201 2°48.047 17.6618 0.035416 0.202322 -0.58268
2009-11-19 09:34:00 51°22.214 2°48.036 17.6492 0.036034 0.205912 -0.617504
2009-11-19 09:34:05 51°22.226 2°48.024 17.6454 0.036034 0.205912 -0.617504
2009-11-19 09:34:10 51°22.239 2°48.012 17.6462 0.035416 0.202318 -0.617504
2009-11-19 09:34:15 51°22.251 2°48 17.5985 0.035107 0.200528 -0.617504
2009-11-19 09:34:20 51°22.263 2°47.988 17.6031 0.034799 0.198742 -0.617504
2009-11-19 09:34:25 51°22.275 2°47.975 17.59 0.035004 0.199927 -0.617504
2009-11-19 09:34:30 51°22.287 2°47.962 17.6369 0.034387 0.196302 -0.617504
2009-11-19 09:34:35 51°22.299 2°47.949 17.6389 0.034387 0.196302 -0.617504
2009-11-19 09:34:40 51°22.312 2°47.937 17.6915 0.034284 0.195712 -0.617504
2009-11-19 09:34:45 51°22.324 2°47.924 17.6285 0.035622 0.203496 -0.617504
2009-11-19 09:34:50 51°22.336 2°47.91 17.6429 0.034387 0.196342 -0.617504
2009-11-19 09:34:54 51°22.346 2°47.899 17.713 0.03521 0.201141 -0.58268
2009-11-19 09:35:00 51°22.361 2°47.885 17.6891 0.035828 0.204738 -0.617504
2009-11-19 09:35:05 51°22.373 2°47.871 17.6834 0.035828 0.204738 -0.617504
2009-11-19 09:35:10 51°22.386 2°47.86 17.6839 0.035107 0.200561 -0.58268
2009-11-19 09:35:15 51°22.398 2°47.846 17.6493 0.035931 0.205355 -0.58268
2009-11-19 09:35:20 51°22.41 2°47.833 17.615 0.035725 0.204154 -0.58268
2009-11-19 09:35:25 51°22.422 2°47.819 17.6335 0.035828 0.20476 -0.617504
2009-11-19 09:35:30 51°22.435 2°47.807 17.6328 0.035416 0.202367 -0.58268
2009-11-19 09:35:35 51°22.447 2°47.794 17.6343 0.035416 0.202367 -0.58268
2009-11-19 09:35:40 51°22.459 2°47.781 17.6281 0.034799 0.198768 -0.58268
2009-11-19 09:35:45 51°22.471 2°47.768 17.6693 0.036445 0.20835 -0.617504
2009-11-19 09:35:50 51°22.484 2°47.756 17.6226 0.036034 0.205988 -0.617504
2009-11-19 09:35:54 51°22.493 2°47.746 17.6246 0.035828 0.204798 -0.617504
2009-11-19 09:36:00 51°22.508 2°47.73 17.6482 0.035519 0.202999 -0.58268
2009-11-19 09:36:05 51°22.52 2°47.718 17.656 0.035519 0.202999 -0.58268
2009-11-19 09:36:10 51°22.532 2°47.705 17.652 0.035107 0.200591 -0.617504
2009-11-19 09:36:15 51°22.545 2°47.693 17.6424 0.035725 0.204177 -0.58268
2009-11-19 09:36:20 51°22.557 2°47.68 17.6712 0.035004 0.199989 -0.58268
2009-11-19 09:36:25 51°22.569 2°47.667 17.6539 0.034696 0.1982 -0.58268
2009-11-19 09:36:30 51°22.581 2°47.654 17.6664 0.035828 0.204779 -0.58268
2009-11-19 09:36:35 51°22.593 2°47.641 17.6964 0.035828 0.204779 -0.58268
2009-11-19 09:36:40 51°22.605 2°47.628 17.6226 0.034902 0.199392 -0.58268
2009-11-19 09:36:45 51°22.617 2°47.615 17.6357 0.035622 0.203582 -0.58268
2009-11-19 09:36:50 51°22.629 2°47.602 17.6581 0.035725 0.204181 -0.617504
2009-11-19 09:36:54 51°22.639 2°47.592 17.6658 0.035519 0.20298 -0.617504
2009-11-19 09:37:00 51°22.653 2°47.576 17.6587 0.035519 0.20298 -0.58268
2009-11-19 09:37:05 51°22.665 2°47.564 17.6863 0.035519 0.20298 -0.58268
2009-11-19 09:37:10 51°22.677 2°47.551 17.7309 0.035313 0.201784 -0.58268
2009-11-19 09:37:15 51°22.689 2°47.537 17.6626 0.035004 0.199986 -0.617504
2009-11-19 09:37:20 51°22.701 2°47.524 17.6535 0.036548 0.208964 -0.58268
2009-11-19 09:37:25 51°22.713 2°47.511 17.6757 0.035107 0.200584 -0.58268
2009-11-19 09:37:30 51°22.725 2°47.498 17.698 0.03521 0.201167 -0.58268
2009-11-19 09:37:35 51°22.737 2°47.484 17.7017 0.03521 0.201167 -0.58268
2009-11-19 09:37:40 51°22.749 2°47.471 17.7273 0.035107 0.200561 -0.617504
2009-11-19 09:37:45 51°22.762 2°47.458 17.7181 0.034696 0.19817 -0.58268
2009-11-19 09:37:50 51°22.774 2°47.444 17.7035 0.035416 0.202359 -0.58268
2009-11-19 09:37:54 51°22.784 2°47.434 17.7071 0.035416 0.202374 -0.617504
2009-11-19 09:38:00 51°22.799 2°47.419 17.73 0.035519 0.202973 -0.58268
2009-11-19 09:38:05 51°22.811 2°47.406 17.7534 0.035519 0.202973 -0.58268
2009-11-19 09:38:10 51°22.823 2°47.393 17.6817 0.035416 0.202371 -0.617504
2009-11-19 09:38:15 51°22.836 2°47.381 17.7109 0.034696 0.198189 -0.617504
2009-11-19 09:38:20 51°22.848 2°47.367 17.7056 0.036239 0.207155 -0.617504
2009-11-19 09:38:25 51°22.861 2°47.355 17.7156 0.03696 0.21137 -0.617504
2009-11-19 09:38:30 51°22.873 2°47.342 17.6714 0.036342 0.207785 -0.617504
2009-11-19 09:38:35 51°22.886 2°47.329 17.7359 0.036342 0.207785 -0.617504
2009-11-19 09:38:40 51°22.898 2°47.317 17.7014 0.03521 0.201204 -0.617504
2009-11-19 09:38:45 51°22.91 2°47.303 17.7019 0.035622 0.203601 -0.58268
2009-11-19 09:38:50 51°22.922 2°47.29 17.6732 0.035622 0.203605 -0.58268
2009-11-19 09:38:54 51°22.932 2°47.28 17.6932 0.035828 0.204821 -0.617504
2009-11-19 09:39:00 51°22.947 2°47.265 17.6793 0.036239 0.207167 -0.617504
2009-11-19 09:39:05 51°22.959 2°47.251 17.6987 0.036239 0.207167 -0.617504
2009-11-19 09:39:10 51°22.971 2°47.238 17.6648 0.034696 0.198189 -0.58268
2009-11-19 09:39:15 51°22.984 2°47.226 17.6789 0.035828 0.204772 -0.58268
2009-11-19 09:39:20 51°22.996 2°47.212 17.6557 0.03449 0.197005 -0.58268
2009-11-19 09:39:25 51°23.008 2°47.198 17.707 0.034593 0.197577 -0.617504
2009-11-19 09:39:30 51°23.02 2°47.186 17.6483 0.035107 0.200569 -0.617504
2009-11-19 09:39:35 51°23.032 2°47.172 17.7238 0.035107 0.200569 -0.617504
2009-11-19 09:39:40 51°23.045 2°47.16 17.6976 0.034284 0.195824 -0.617504
2009-11-19 09:39:45 51°23.057 2°47.148 17.709 0.034181 0.195223 -0.58268
2009-11-19 09:39:50 51°23.069 2°47.135 17.7117 0.035107 0.20061 -0.58268
2009-11-19 09:39:55 51°23.081 2°47.123 17.6915 0.034387 0.196462 -0.58268
2009-11-19 09:40:00 51°23.094 2°47.11 17.6818 0.034284 0.195878 -0.617504
2009-11-19 09:40:05 51°23.106 2°47.097 17.6898 0.034284 0.195878 -0.617504
2009-11-19 09:40:10 51°23.118 2°47.085 17.6992 0.035107 0.200662 -0.617504
2009-11-19 09:40:15 51°23.13 2°47.073 17.6791 0.035519 0.203018 -0.617504
2009-11-19 09:40:20 51°23.142 2°47.06 17.6653 0.034284 0.195817 -0.617504
2009-11-19 09:40:25 51°23.154 2°47.046 17.7511 0.03768 0.215585 -0.58268
2009-11-19 09:40:30 51°23.166 2°47.035 17.7337 0.037063 0.211989 -0.58268
2009-11-19 09:40:35 51°23.178 2°47.021 17.7242 0.037063 0.211989 -0.58268
2009-11-19 09:40:40 51°23.19 2°47.008 17.7125 0.037783 0.216213 -0.617504
2009-11-19 09:40:45 51°23.202 2°46.995 17.6987 0.036239 0.207232 -0.617504
2009-11-19 09:40:50 51°23.214 2°46.981 17.7371 0.037063 0.212017 -0.617504
2009-11-19 09:40:55 51°23.226 2°46.969 17.6737 0.035931 0.20542 -0.617504
2009-11-19 09:41:00 51°23.238 2°46.955 17.6946 0.036445 0.208419 -0.617504
2009-11-19 09:41:05 51°23.25 2°46.943 17.6859 0.036445 0.208419 -0.617504
2009-11-19 09:41:10 51°23.262 2°46.931 17.6985 0.035725 0.204215 -0.617504
2009-11-19 09:41:15 51°23.274 2°46.918 17.7183 0.035828 0.204795 -0.617504
2009-11-19 09:41:20 51°23.287 2°46.905 17.7103 0.036342 0.207801 -0.58268
2009-11-19 09:41:25 51°23.299 2°46.892 17.6863 0.035519 0.203025 -0.58268
2009-11-19 09:41:30 51°23.311 2°46.879 17.7368 0.035725 0.204238 -0.617504
2009-11-19 09:41:35 51°23.324 2°46.866 17.7755 0.035725 0.204238 -0.617504
2009-11-19 09:41:40 51°23.336 2°46.853 17.7894 0.035416 0.202442 -0.58268
2009-11-19 09:41:45 51°23.348 2°46.839 17.7387 0.03521 0.201234 -0.58268
2009-11-19 09:41:50 51°23.36 2°46.827 17.7474 0.036239 0.207248 -0.617504
2009-11-19 09:41:55 51°23.373 2°46.815 17.709 0.036034 0.206042 -0.58268
2009-11-19 09:42:00 51°23.385 2°46.801 17.6952 0.035519 0.203025 -0.617504
2009-11-19 09:42:05 51°23.396 2°46.788 17.7619 0.035519 0.203025 -0.617504
2009-11-19 09:42:10 51°23.409 2°46.775 17.7291 0.034593 0.197646 -0.58268
2009-11-19 09:42:15 51°23.421 2°46.761 17.7164 0.035519 0.203048 -0.617504
2009-11-19 09:42:20 51°23.433 2°46.749 17.7182 0.034696 0.198255 -0.617504
2009-11-19 09:42:25 51°23.445 2°46.736 17.7114 0.03521 0.201256 -0.617504
2009-11-19 09:42:30 51°23.458 2°46.724 17.7036 0.034902 0.199458 -0.617504
2009-11-19 09:42:35 51°23.47 2°46.71 17.7595 0.034902 0.199458 -0.617504
2009-11-19 09:42:40 51°23.483 2°46.701 17.69 0.036034 0.206057 -0.58268
2009-11-19 09:42:45 51°23.495 2°46.688 17.7308 0.03696 0.21146 -0.617504
2009-11-19 09:42:50 51°23.508 2°46.678 17.7392 0.034902 0.199473 -0.617504
2009-11-19 09:42:55 51°23.519 2°46.665 17.6945 0.03521 0.201267 -0.617504
2009-11-19 09:43:00 51°23.532 2°46.653 17.7247 0.034799 0.198871 -0.617504
2009-11-19 09:43:05 51°23.544 2°46.64 17.7219 0.034799 0.198871 -0.617504
2009-11-19 09:43:10 51°23.556 2°46.627 17.7254 0.035313 0.201869 -0.617504
2009-11-19 09:43:15 51°23.568 2°46.615 17.7579 0.035107 0.200691 -0.58268
2009-11-19 09:43:20 51°23.58 2°46.602 17.7275 0.035725 0.204279 -0.617504
2009-11-19 09:43:25 51°23.592 2°46.59 17.7852 0.034799 0.198904 -0.617504
2009-11-19 09:43:30 51°23.604 2°46.577 17.7854 0.035725 0.204275 -0.617504
2009-11-19 09:43:35 51°23.616 2°46.564 17.8595 0.035725 0.204275 -0.617504
2009-11-19 09:43:40 51°23.629 2°46.551 17.8079 0.034284 0.195889 -0.617504
2009-11-19 09:43:45 51°23.641 2°46.538 17.7549 0.036136 0.206656 -0.617504
2009-11-19 09:43:50 51°23.653 2°46.524 17.7583 0.035622 0.20368 -0.617504
2009-11-19 09:43:55 51°23.665 2°46.511 17.7182 0.035725 0.204294 -0.617504
2009-11-19 09:44:00 51°23.678 2°46.499 17.742 0.036136 0.206687 -0.58268
2009-11-19 09:44:05 51°23.69 2°46.485 17.7191 0.036136 0.206687 -0.58268
2009-11-19 09:44:10 51°23.702 2°46.472 17.736 0.036651 0.209672 -0.617504
2009-11-19 09:44:15 51°23.714 2°46.459 17.7292 0.035931 0.205481 -0.617504
2009-11-19 09:44:20 51°23.726 2°46.446 17.7838 0.035725 0.204279 -0.617504
2009-11-19 09:44:25 51°23.739 2°46.434 17.727 0.035004 0.200082 -0.617504
2009-11-19 09:44:30 51°23.751 2°46.42 17.7382 0.035004 0.200074 -0.58268
2009-11-19 09:44:34 51°23.76 2°46.409 17.7655 0.035004 0.200074 -0.58268
2009-11-19 09:44:40 51°23.775 2°46.395 17.7458 0.035004 0.200074 -0.617504
2009-11-19 09:44:45 51°23.788 2°46.381 17.7241 0.03521 0.201278 -0.617504
2009-11-19 09:44:50 51°23.8 2°46.368 17.7532 0.035725 0.204298 -0.617504
2009-11-19 09:44:55 51°23.812 2°46.355 17.748 0.035519 0.203112 -0.617504
2009-11-19 09:45:00 51°23.824 2°46.342 17.7925 0.035519 0.203131 -0.617504
2009-11-19 09:45:05 51°23.837 2°46.329 17.8227 0.035519 0.203131 -0.617504
2009-11-19 09:45:10 51°23.849 2°46.316 17.7295 0.035004 0.200145 -0.617504
2009-11-19 09:45:15 51°23.86 2°46.303 17.8096 0.035931 0.205527 -0.58268
2009-11-19 09:45:20 51°23.873 2°46.291 17.7169 0.034902 0.199498 -0.58268
2009-11-19 09:45:25 51°23.884 2°46.278 17.7524 0.036857 0.210872 -0.617504
2009-11-19 09:45:30 51°23.897 2°46.268 17.7977 0.03521 0.201293 -0.617504
2009-11-19 09:45:35 51°23.909 2°46.257 17.7255 0.03521 0.201293 -0.617504
2009-11-19 09:45:40 51°23.922 2°46.246 17.7382 0.036034 0.206084 -0.617504
2009-11-19 09:45:45 51°23.934 2°46.237 17.7827 0.035416 0.20249 -0.617504
2009-11-19 09:45:50 51°23.947 2°46.226 17.7477 0.035416 0.202487 -0.617504
2009-11-19 09:45:55 51°23.96 2°46.217 17.7277 0.037371 0.213896 -0.617504
2009-11-19 09:46:00 51°23.973 2°46.209 17.7491 0.035313 0.201896 -0.617504
2009-11-19 09:46:05 51°23.986 2°46.201 17.7545 0.035313 0.201896 -0.617504
2009-11-19 09:46:10 51°24 2°46.193 17.764 0.037268 0.213296 -0.617504
2009-11-19 09:46:15 51°24.013 2°46.188 17.7531 0.037474 0.214512 -0.617504
2009-11-19 09:46:20 51°24.027 2°46.182 17.7473 0.036239 0.207313 -0.617504
2009-11-19 09:46:25 51°24.04 2°46.178 17.7751 0.037577 0.215113 -0.617504
2009-11-19 09:46:30 51°24.054 2°46.176 17.7496 0.035313 0.201911 -0.617504
2009-11-19 09:46:34 51°24.065 2°46.171 17.782 0.035313 0.201911 -0.617504
2009-11-19 09:46:40 51°24.081 2°46.17 17.8085 0.037166 0.212719 -0.617504
2009-11-19 09:46:45 51°24.095 2°46.167 17.7923 0.03768 0.21573 -0.617504
2009-11-19 09:46:50 51°24.11 2°46.165 17.7733 0.037063 0.212103 -0.617504
2009-11-19 09:46:55 51°24.123 2°46.163 17.8658 0.037989 0.217512 -0.617504
2009-11-19 09:47:00 51°24.137 2°46.164 17.7458 0.035416 0.202483 -0.617504
2009-11-19 09:47:05 51°24.151 2°46.16 17.8228 0.035416 0.202483 -0.617504
2009-11-19 09:47:10 51°24.165 2°46.161 17.8539 0.040459 0.23193 -0.617504
2009-11-19 09:47:15 51°24.178 2°46.158 17.7685 0.037474 0.214488 -0.617504
2009-11-19 09:47:20 51°24.192 2°46.159 17.7905 0.035931 0.205488 -0.617504
2009-11-19 09:47:25 51°24.205 2°46.158 17.8018 0.039224 0.224732 -0.58268
2009-11-19 09:47:30 51°24.219 2°46.162 17.7843 0.037063 0.212119 -0.617504
2009-11-19 09:47:35 51°24.232 2°46.165 17.8266 0.037063 0.212119 -0.617504
2009-11-19 09:47:40 51°24.245 2°46.168 17.903 0.042002 0.241025 -0.58268
2009-11-19 09:47:45 51°24.257 2°46.176 17.7972 0.04015 0.23017 -0.617504
2009-11-19 09:47:50 51°24.27 2°46.182 17.8087 0.039327 0.225351 -0.617504
2009-11-19 09:47:55 51°24.283 2°46.188 17.8512 0.042002 0.241025 -0.617504
2009-11-19 09:48:00 51°24.294 2°46.199 17.8046 0.040253 0.230742 -0.617504
2009-11-19 09:48:05 51°24.307 2°46.204 17.8342 0.040253 0.230742 -0.617504
2009-11-19 09:48:10 51°24.318 2°46.216 17.8105 0.039018 0.223529 -0.617504
2009-11-19 09:48:15 51°24.33 2°46.224 17.8405 0.041179 0.236169 -0.58268
2009-11-19 09:48:20 51°24.341 2°46.236 17.8089 0.038812 0.222309 -0.58268
2009-11-19 09:48:25 51°24.353 2°46.246 17.8542 0.041282 0.236755 -0.617504
2009-11-19 09:48:30 51°24.362 2°46.261 17.8473 0.037886 0.216874 -0.58268
2009-11-19 09:48:35 51°24.373 2°46.272 17.8298 0.037886 0.216874 -0.58268
2009-11-19 09:48:40 51°24.384 2°46.284 17.8917 0.042105 0.241561 -0.58268
2009-11-19 09:48:45 51°24.393 2°46.3 17.8943 0.038503 0.220472 -0.617504
2009-11-19 09:48:50 51°24.403 2°46.311 17.8247 0.041796 0.239732 -0.58268
2009-11-19 09:48:55 51°24.412 2°46.327 17.8344 0.039018 0.223462 -0.617504
2009-11-19 09:49:00 51°24.422 2°46.341 17.8775 0.041282 0.236719 -0.617504
2009-11-19 09:49:05 51°24.43 2°46.356 17.8399 0.041282 0.236719 -0.617504
2009-11-19 09:49:10 51°24.44 2°46.371 17.7977 0.038709 0.221662 -0.58268
2009-11-19 09:49:15 51°24.45 2°46.387 17.9144 0.04087 0.234311 -0.617504
2009-11-19 09:49:20 51°24.458 2°46.401 17.8079 0.041591 0.238547 -0.58268
2009-11-19 09:49:25 51°24.467 2°46.418 17.8318 0.037783 0.216254 -0.617504
2009-11-19 09:49:30 51°24.477 2°46.433 17.9403 0.043134 0.247586 -0.617504
2009-11-19 09:49:35 51°24.484 2°46.45 17.9052 0.043134 0.247586 -0.617504
2009-11-19 09:49:40 51°24.493 2°46.467 17.8459 0.037577 0.215049 -0.617504
2009-11-19 09:49:45 51°24.502 2°46.482 17.9441 0.043855 0.251815 -0.58268
2009-11-19 09:49:50 51°24.508 2°46.5 17.8169 0.039121 0.224063 -0.617504
2009-11-19 09:49:54 51°24.516 2°46.512 17.8908 0.041796 0.239727 -0.58268
2009-11-19 09:50:00 51°24.526 2°46.532 17.8696 0.040561 0.232502 -0.617504
2009-11-19 09:50:05 51°24.533 2°46.55 17.8563 0.040561 0.232502 -0.617504
2009-11-19 09:50:10 51°24.542 2°46.566 17.882 0.038195 0.21864 -0.617504
2009-11-19 09:50:15 51°24.549 2°46.583 17.8608 0.040664 0.233066 -0.617504
2009-11-19 09:50:20 51°24.556 2°46.6 17.8764 0.037474 0.214413 -0.617504
2009-11-19 09:50:25 51°24.565 2°46.616 17.8962 0.041899 0.2403 -0.58268
2009-11-19 09:50:30 51°24.572 2°46.633 17.9254 0.037783 0.216213 -0.617504
2009-11-19 09:50:35 51°24.58 2°46.65 17.8957 0.037783 0.216213 -0.617504
2009-11-19 09:50:40 51°24.589 2°46.667 17.9508 0.041796 0.239687 -0.617504
2009-11-19 09:50:45 51°24.595 2°46.685 17.8419 0.038503 0.220418 -0.617504
2009-11-19 09:50:50 51°24.604 2°46.701 17.8767 0.038915 0.222811 -0.617504
2009-11-19 09:50:55 51°24.612 2°46.718 17.9012 0.038709 0.221608 -0.58268
2009-11-19 09:51:00 51°24.619 2°46.735 17.8661 0.0384 0.219805 -0.58268
2009-11-19 09:51:05 51°24.628 2°46.751 17.8889 0.0384 0.219805 -0.58268
2009-11-19 09:51:10 51°24.636 2°46.768 17.9405 0.04087 0.23425 -0.617504
2009-11-19 09:51:15 51°24.644 2°46.784 17.8377 0.037474 0.214401 -0.617504
2009-11-19 09:51:20 51°24.654 2°46.798 17.9546 0.042311 0.242701 -0.617504
2009-11-19 09:51:25 51°24.662 2°46.814 17.9699 0.041899 0.240327 -0.617504
2009-11-19 09:51:30 51°24.671 2°46.829 17.9219 0.041899 0.240322 -0.58268
2009-11-19 09:51:35 51°24.681 2°46.842 17.9095 0.041899 0.240322 -0.58268
2009-11-19 09:51:40 51°24.69 2°46.858 17.8325 0.04015 0.230079 -0.617504
2009-11-19 09:51:45 51°24.701 2°46.871 17.9431 0.038709 0.221625 -0.617504
2009-11-19 09:51:50 51°24.711 2°46.885 17.9708 0.04015 0.23004 -0.617504
2009-11-19 09:51:55 51°24.721 2°46.898 17.8682 0.041179 0.236063 -0.58268
2009-11-19 09:52:00 51°24.732 2°46.911 17.9978 0.038709 0.221621 -0.617504
2009-11-19 09:52:05 51°24.742 2°46.926 17.912 0.038709 0.221621 -0.617504
2009-11-19 09:52:10 51°24.754 2°46.935 17.9196 0.038709 0.221612 -0.617504
2009-11-19 09:52:15 51°24.764 2°46.948 17.9503 0.042208 0.242129 -0.58268
2009-11-19 09:52:20 51°24.776 2°46.961 17.8679 0.039532 0.226466 -0.617504
2009-11-19 09:52:25 51°24.787 2°46.972 17.9212 0.038812 0.22228 -0.58268
2009-11-19 09:52:30 51°24.797 2°46.985 17.8773 0.040356 0.231332 -0.617504
2009-11-19 09:52:35 51°24.809 2°46.997 17.9164 0.040356 0.231332 -0.617504
2009-11-19 09:52:40 51°24.819 2°47.011 17.8883 0.036754 0.210296 -0.58268
2009-11-19 09:52:45 51°24.831 2°47.021 17.9585 0.042208 0.242147 -0.617504
2009-11-19 09:52:50 51°24.841 2°47.036 17.8885 0.039018 0.223458 -0.617504
2009-11-19 09:52:55 51°24.854 2°47.047 17.956 0.040767 0.233695 -0.617504
2009-11-19 09:53:00 51°24.864 2°47.061 17.9554 0.04087 0.234302 -0.617504
2009-11-19 09:53:05 51°24.876 2°47.073 17.9103 0.04087 0.234302 -0.617504
2009-11-19 09:53:10 51°24.888 2°47.085 17.9402 0.0384 0.219854 -0.58268
2009-11-19 09:53:15 51°24.898 2°47.099 17.9663 0.041282 0.236719 -0.617504
2009-11-19 09:53:20 51°24.91 2°47.111 17.9368 0.039121 0.224063 -0.617504
2009-11-19 09:53:25 51°24.921 2°47.123 18.0012 0.041179 0.236111 -0.617504
2009-11-19 09:53:30 51°24.932 2°47.136 17.8945 0.039532 0.226475 -0.58268
2009-11-19 09:53:35 51°24.944 2°47.147 17.9744 0.039532 0.226475 -0.58268
2009-11-19 09:53:40 51°24.954 2°47.161 17.9517 0.04087 0.234311 -0.58268
2009-11-19 09:53:45 51°24.966 2°47.172 17.913 0.037474 0.214456 -0.617504
2009-11-19 09:53:50 51°24.977 2°47.184 17.9895 0.041488 0.23793 -0.58268
2009-11-19 09:53:55 51°24.987 2°47.198 18.0037 0.038503 0.220459 -0.617504
2009-11-19 09:54:00 51°24.998 2°47.21 17.8991 0.042002 0.240935 -0.617504
2009-11-19 09:54:05 51°25.01 2°47.221 18.0265 0.042002 0.240935 -0.617504
2009-11-19 09:54:10 51°25.02 2°47.238 17.9124 0.038092 0.218048 -0.617504
2009-11-19 09:54:15 51°25.032 2°47.246 18.0049 0.042928 0.246377 -0.617504
2009-11-19 09:54:20 51°25.041 2°47.262 17.9288 0.039121 0.224151 -0.617504
2009-11-19 09:54:25 51°25.053 2°47.272 17.9817 0.04087 0.234438 -0.58268
2009-11-19 09:54:30 51°25.063 2°47.286 17.9654 0.039944 0.229067 -0.617504
2009-11-19 09:54:35 51°25.075 2°47.298 17.9348 0.039944 0.229067 -0.617504
2009-11-19 09:54:40 51°25.085 2°47.312 17.9593 0.039635 0.227234 -0.617504
2009-11-19 09:54:45 51°25.097 2°47.324 17.9783 0.039327 0.22541 -0.58268
2009-11-19 09:54:50 51°25.107 2°47.337 18.017 0.040253 0.230833 -0.617504
2009-11-19 09:54:55 51°25.118 2°47.351 17.8966 0.037783 0.216383 -0.58268
2009-11-19 09:55:00 51°25.129 2°47.362 18.0618 0.042105 0.241675 -0.58268